Wetterdaten: Freitag, 05.07.2013
Datum Zeit Temp. Aussen +5cm Feuchte Auss Luftdruck Regen Sonnenschein Regendauer UV Solar Windben
05.07.2013 00:00 18,1 C 16,8 C 85 % 1024,4 hPa 0,0 l/m 0 min 0 min 0,0 UV-I 0 W/m 0,0 km/h (0 Bft)
05.07.2013 00:02 18,1 C 16,8 C 85 % 1024,4 hPa 0,0 l/m 0 min 0 min 0,0 UV-I 0 W/m 0,0 km/h (0 Bft)
05.07.2013 00:06 18,1 C 16,8 C 85 % 1024,6 hPa 0,0 l/m 0 min 0 min 0,0 UV-I 0 W/m 0,0 km/h (0 Bft)
05.07.2013 00:08 18,0 C 16,8 C 85 % 1024,5 hPa 0,0 l/m 0 min 0 min 0,0 UV-I 0 W/m 0,0 km/h (0 Bft)
05.07.2013 00:10 18,0 C 16,8 C 85 % 1024,6 hPa 0,0 l/m 0 min 0 min 0,0 UV-I 0 W/m 2,6 km/h (1 Bft)
05.07.2013 00:12 18,0 C 16,8 C 85 % 1024,6 hPa 0,0 l/m 0 min 0 min 0,0 UV-I 0 W/m 2,6 km/h (1 Bft)
05.07.2013 00:14 18,0 C 16,8 C 85 % 1024,6 hPa 0,0 l/m 0 min 0 min 0,0 UV-I 0 W/m 2,6 km/h (1 Bft)
05.07.2013 00:16 18,0 C 16,8 C 85 % 1024,6 hPa 0,0 l/m 0 min 0 min 0,0 UV-I 0 W/m 0,0 km/h (0 Bft)
05.07.2013 00:18 17,9 C 16,8 C 85 % 1024,6 hPa 0,0 l/m 0 min 0 min 0,0 UV-I 0 W/m 2,6 km/h (1 Bft)
05.07.2013 00:20 17,9 C 16,8 C 85 % 1024,6 hPa 0,0 l/m 0 min 0 min 0,0 UV-I 0 W/m 0,0 km/h (0 Bft)
05.07.2013 00:22 17,9 C 16,8 C 85 % 1024,6 hPa 0,0 l/m 0 min 0 min 0,0 UV-I 0 W/m 0,0 km/h (0 Bft)
05.07.2013 00:24 17,9 C 16,8 C 85 % 1024,6 hPa 0,0 l/m 0 min 0 min 0,0 UV-I 0 W/m 0,0 km/h (0 Bft)
05.07.2013 00:26 17,9 C 16,8 C 85 % 1024,7 hPa 0,0 l/m 0 min 0 min 0,0 UV-I 0 W/m 7,7 km/h (2 Bft)
05.07.2013 00:28 17,9 C 16,8 C 85 % 1024,7 hPa 0,0 l/m 0 min 0 min 0,0 UV-I 0 W/m 7,7 km/h (2 Bft)
05.07.2013 00:30 17,9 C 16,8 C 85 % 1024,7 hPa 0,0 l/m 0 min 0 min 0,0 UV-I 0 W/m 2,6 km/h (1 Bft)
05.07.2013 00:32 17,9 C 16,8 C 85 % 1024,7 hPa 0,0 l/m 0 min 0 min 0,0 UV-I 0 W/m 0,0 km/h (0 Bft)
05.07.2013 00:34 17,9 C 16,8 C 85 % 1024,7 hPa 0,0 l/m 0 min 0 min 0,0 UV-I 0 W/m 0,0 km/h (0 Bft)
05.07.2013 00:36 17,9 C 16,8 C 85 % 1024,7 hPa 0,0 l/m 0 min 0 min 0,0 UV-I 0 W/m 0,0 km/h (0 Bft)
05.07.2013 00:38 17,9 C 16,8 C 85 % 1024,8 hPa 0,0 l/m 0 min 0 min 0,0 UV-I 0 W/m 7,7 km/h (2 Bft)
05.07.2013 00:40 17,9 C 16,8 C 85 % 1024,7 hPa 0,0 l/m 0 min 0 min 0,0 UV-I 0 W/m 7,7 km/h (2 Bft)
05.07.2013 00:42 17,9 C 16,8 C 86 % 1024,7 hPa 0,0 l/m 0 min 0 min 0,0 UV-I 0 W/m 0,0 km/h (0 Bft)
05.07.2013 00:44 17,9 C 16,8 C 86 % 1024,7 hPa 0,0 l/m 0 min 0 min 0,0 UV-I 0 W/m 0,0 km/h (0 Bft)
05.07.2013 00:46 17,8 C 16,8 C 86 % 1024,7 hPa 0,0 l/m 0 min 0 min 0,0 UV-I 0 W/m 2,6 km/h (1 Bft)
05.07.2013 00:48 17,8 C 16,8 C 86 % 1024,8 hPa 0,0 l/m 0 min 0 min 0,0 UV-I 0 W/m 0,0 km/h (0 Bft)
05.07.2013 00:50 17,8 C 16,8 C 86 % 1024,8 hPa 0,0 l/m 0 min 0 min 0,0 UV-I 0 W/m 7,7 km/h (2 Bft)
05.07.2013 00:52 17,8 C 16,8 C 86 % 1024,8 hPa 0,0 l/m 0 min 0 min 0,0 UV-I 0 W/m 0,0 km/h (0 Bft)
05.07.2013 00:54 17,8 C 16,8 C 86 % 1024,8 hPa 0,0 l/m 0 min 0 min 0,0 UV-I 0 W/m 0,0 km/h (0 Bft)
05.07.2013 00:56 17,8 C 16,8 C 86 % 1024,8 hPa 0,0 l/m 0 min 0 min 0,0 UV-I 0 W/m 12,9 km/h (3 Bft)
05.07.2013 00:58 17,8 C 16,8 C 86 % 1024,8 hPa 0,0 l/m 0 min 0 min 0,0 UV-I 0 W/m 2,6 km/h (1 Bft)
05.07.2013 01:00 17,8 C 16,8 C 86 % 1024,8 hPa 0,0 l/m 0 min 0 min 0,0 UV-I 0 W/m 7,7 km/h (2 Bft)
05.07.2013 01:02 17,8 C 16,8 C 86 % 1024,9 hPa 0,0 l/m 0 min 0 min 0,0 UV-I 0 W/m 2,6 km/h (1 Bft)
05.07.2013 01:06 17,8 C 16,2 C 86 % 1024,9 hPa 0,0 l/m 0 min 0 min 0,0 UV-I 0 W/m 0,0 km/h (0 Bft)
05.07.2013 01:08 17,8 C 16,2 C 86 % 1024,9 hPa 0,0 l/m 0 min 0 min 0,0 UV-I 0 W/m 10,3 km/h (2 Bft)
05.07.2013 01:10 17,8 C 16,2 C 86 % 1024,9 hPa 0,0 l/m 0 min 0 min 0,0 UV-I 0 W/m 0,0 km/h (0 Bft)
05.07.2013 01:12 17,8 C 16,2 C 86 % 1024,8 hPa 0,0 l/m 0 min 0 min 0,0 UV-I 0 W/m 0,0 km/h (0 Bft)
05.07.2013 01:14 17,8 C 16,2 C 86 % 1024,9 hPa 0,0 l/m 0 min 0 min 0,0 UV-I 0 W/m 0,0 km/h (0 Bft)
05.07.2013 01:16 17,8 C 16,2 C 86 % 1024,9 hPa 0,0 l/m 0 min 0 min 0,0 UV-I 0 W/m 2,6 km/h (1 Bft)
05.07.2013 01:18 17,8 C 16,2 C 86 % 1025,0 hPa 0,0 l/m 0 min 0 min 0,0 UV-I 0 W/m 0,0 km/h (0 Bft)
05.07.2013 01:20 17,8 C 16,2 C 86 % 1024,9 hPa 0,0 l/m 0 min 0 min 0,0 UV-I 0 W/m 7,7 km/h (2 Bft)
05.07.2013 01:22 17,8 C 16,2 C 87 % 1025,0 hPa 0,0 l/m 0 min 0 min 0,0 UV-I 0 W/m 0,0 km/h (0 Bft)
05.07.2013 01:24 17,8 C 16,2 C 87 % 1025,0 hPa 0,0 l/m 0 min 0 min 0,0 UV-I 0 W/m 0,0 km/h (0 Bft)
05.07.2013 01:26 17,8 C 16,2 C 87 % 1025,0 hPa 0,0 l/m 0 min 0 min 0,0 UV-I 0 W/m 10,3 km/h (2 Bft)
05.07.2013 01:28 17,7 C 16,2 C 87 % 1025,0 hPa 0,0 l/m 0 min 0 min 0,0 UV-I 0 W/m 2,6 km/h (1 Bft)
05.07.2013 01:30 17,7 C 16,2 C 87 % 1025,1 hPa 0,0 l/m 0 min 0 min 0,0 UV-I 0 W/m 0,0 km/h (0 Bft)
05.07.2013 01:32 17,7 C 16,2 C 87 % 1025,1 hPa 0,0 l/m 0 min 0 min 0,0 UV-I 0 W/m 0,0 km/h (0 Bft)
05.07.2013 01:34 17,7 C 16,2 C 87 % 1025,1 hPa 0,0 l/m 0 min 0 min 0,0 UV-I 0 W/m 2,6 km/h (1 Bft)
05.07.2013 01:36 17,7 C 16,2 C 87 % 1025,1 hPa 0,0 l/m 0 min 0 min 0,0 UV-I 0 W/m 0,0 km/h (0 Bft)
05.07.2013 01:38 17,7 C 16,2 C 87 % 1025,2 hPa 0,0 l/m 0 min 0 min 0,0 UV-I 0 W/m 0,0 km/h (0 Bft)
05.07.2013 01:40 17,7 C 16,2 C 87 % 1025,2 hPa 0,0 l/m 0 min 0 min 0,0 UV-I 0 W/m 0,0 km/h (0 Bft)
05.07.2013 01:42 17,7 C 16,2 C 87 % 1025,1 hPa 0,0 l/m 0 min 0 min 0,0 UV-I 0 W/m 0,0 km/h (0 Bft)
05.07.2013 01:44 17,7 C 16,2 C 87 % 1025,2 hPa 0,0 l/m 0 min 0 min 0,0 UV-I 0 W/m 0,0 km/h (0 Bft)
05.07.2013 01:46 17,7 C 16,2 C 87 % 1025,2 hPa 0,0 l/m 0 min 0 min 0,0 UV-I 0 W/m 0,0 km/h (0 Bft)
05.07.2013 01:48 17,7 C 16,2 C 87 % 1025,1 hPa 0,0 l/m 0 min 0 min 0,0 UV-I 0 W/m 0,0 km/h (0 Bft)
05.07.2013 01:50 17,7 C 16,2 C 87 % 1025,2 hPa 0,0 l/m 0 min 0 min 0,0 UV-I 0 W/m 0,0 km/h (0 Bft)
05.07.2013 01:52 17,7 C 16,2 C 87 % 1025,2 hPa 0,0 l/m 0 min 0 min 0,0 UV-I 0 W/m 0,0 km/h (0 Bft)
05.07.2013 01:54 17,7 C 16,2 C 87 % 1025,2 hPa 0,0 l/m 0 min 0 min 0,0 UV-I 0 W/m 0,0 km/h (0 Bft)
05.07.2013 01:56 17,7 C 16,2 C 87 % 1025,2 hPa 0,0 l/m 0 min 0 min 0,0 UV-I 0 W/m 0,0 km/h (0 Bft)
05.07.2013 01:58 17,7 C 16,2 C 87 % 1025,2 hPa 0,0 l/m 0 min 0 min 0,0 UV-I 0 W/m 0,0 km/h (0 Bft)
05.07.2013 02:00 17,6 C 16,2 C 87 % 1025,2 hPa 0,0 l/m 0 min 0 min 0,0 UV-I 0 W/m 0,0 km/h (0 Bft)
05.07.2013 02:02 17,6 C 16,2 C 88 % 1025,3 hPa 0,0 l/m 0 min 0 min 0,0 UV-I 0 W/m 0,0 km/h (0 Bft)
05.07.2013 02:06 17,6 C 16,2 C 88 % 1025,3 hPa 0,0 l/m 0 min 0 min 0,0 UV-I 0 W/m 0,0 km/h (0 Bft)
05.07.2013 02:08 17,6 C 16,2 C 88 % 1025,2 hPa 0,0 l/m 0 min 0 min 0,0 UV-I 0 W/m 0,0 km/h (0 Bft)
05.07.2013 02:10 17,6 C 16,2 C 88 % 1025,3 hPa 0,0 l/m 0 min 0 min 0,0 UV-I 0 W/m 0,0 km/h (0 Bft)
05.07.2013 02:12 17,6 C 16,2 C 88 % 1025,3 hPa 0,0 l/m 0 min 0 min 0,0 UV-I 0 W/m 0,0 km/h (0 Bft)
05.07.2013 02:14 17,6 C 16,2 C 88 % 1025,3 hPa 0,0 l/m 0 min 0 min 0,0 UV-I 0 W/m 0,0 km/h (0 Bft)
05.07.2013 02:16 17,6 C 16,2 C 88 % 1025,2 hPa 0,0 l/m 0 min 0 min 0,0 UV-I 0 W/m 0,0 km/h (0 Bft)
05.07.2013 02:18 17,6 C 16,2 C 88 % 1025,3 hPa 0,0 l/m 0 min 0 min 0,0 UV-I 0 W/m 0,0 km/h (0 Bft)
05.07.2013 02:20 17,6 C 16,2 C 88 % 1025,3 hPa 0,0 l/m 0 min 0 min 0,0 UV-I 0 W/m 0,0 km/h (0 Bft)
05.07.2013 02:22 17,6 C 16,2 C 88 % 1025,3 hPa 0,0 l/m 0 min 0 min 0,0 UV-I 0 W/m 0,0 km/h (0 Bft)
05.07.2013 02:24 17,6 C 16,2 C 88 % 1025,3 hPa 0,0 l/m 0 min 0 min 0,0 UV-I 0 W/m 0,0 km/h (0 Bft)
05.07.2013 02:26 17,6 C 16,2 C 88 % 1025,3 hPa 0,0 l/m 0 min 0 min 0,0 UV-I 0 W/m 0,0 km/h (0 Bft)
05.07.2013 02:28 17,6 C 16,2 C 88 % 1025,3 hPa 0,0 l/m 0 min 0 min 0,0 UV-I 0 W/m 0,0 km/h (0 Bft)
05.07.2013 02:30 17,6 C 16,2 C 88 % 1025,4 hPa 0,0 l/m 0 min 0 min 0,0 UV-I 0 W/m 0,0 km/h (0 Bft)
05.07.2013 02:32 17,5 C 16,2 C 88 % 1025,4 hPa 0,0 l/m 0 min 0 min 0,0 UV-I 0 W/m 0,0 km/h (0 Bft)
05.07.2013 02:34 17,5 C 16,2 C 88 % 1025,4 hPa 0,0 l/m 0 min 0 min 0,0 UV-I 0 W/m 0,0 km/h (0 Bft)
05.07.2013 02:36 17,5 C 16,2 C 88 % 1025,4 hPa 0,0 l/m 0 min 0 min 0,0 UV-I 0 W/m 0,0 km/h (0 Bft)
05.07.2013 02:38 17,5 C 16,2 C 88 % 1025,3 hPa 0,0 l/m 0 min 0 min 0,0 UV-I 0 W/m 0,0 km/h (0 Bft)
05.07.2013 02:40 17,4 C 16,2 C 88 % 1025,4 hPa 0,0 l/m 0 min 0 min 0,0 UV-I 0 W/m 0,0 km/h (0 Bft)
05.07.2013 02:42 17,4 C 16,2 C 88 % 1025,3 hPa 0,0 l/m 0 min 0 min 0,0 UV-I 0 W/m 0,0 km/h (0 Bft)
05.07.2013 02:44 17,4 C 16,2 C 88 % 1025,3 hPa 0,0 l/m 0 min 0 min 0,0 UV-I 0 W/m 0,0 km/h (0 Bft)
05.07.2013 02:46 17,4 C 16,2 C 88 % 1025,3 hPa 0,0 l/m 0 min 0 min 0,0 UV-I 0 W/m 0,0 km/h (0 Bft)
05.07.2013 02:48 17,4 C 16,2 C 88 % 1025,4 hPa 0,0 l/m 0 min 0 min 0,0 UV-I 0 W/m 0,0 km/h (0 Bft)
05.07.2013 02:50 17,4 C 16,2 C 88 % 1025,3 hPa 0,0 l/m 0 min 0 min 0,0 UV-I 0 W/m 0,0 km/h (0 Bft)
05.07.2013 02:52 17,4 C 16,2 C 88 % 1025,3 hPa 0,0 l/m 0 min 0 min 0,0 UV-I 0 W/m 0,0 km/h (0 Bft)
05.07.2013 02:54 17,4 C 16,2 C 88 % 1025,3 hPa 0,0 l/m 0 min 0 min 0,0 UV-I 0 W/m 0,0 km/h (0 Bft)
05.07.2013 02:56 17,4 C 16,2 C 88 % 1025,4 hPa 0,0 l/m 0 min 0 min 0,0 UV-I 0 W/m 0,0 km/h (0 Bft)
05.07.2013 02:58 17,4 C 16,2 C 88 % 1025,3 hPa 0,0 l/m 0 min 0 min 0,0 UV-I 0 W/m 0,0 km/h (0 Bft)
05.07.2013 03:00 17,4 C 16,2 C 88 % 1025,3 hPa 0,0 l/m 0 min 0 min 0,0 UV-I 0 W/m 0,0 km/h (0 Bft)
05.07.2013 03:02 17,4 C 16,2 C 88 % 1025,3 hPa 0,0 l/m 0 min 0 min 0,0 UV-I 0 W/m 0,0 km/h (0 Bft)
05.07.2013 03:05 17,3 C 16,2 C 88 % 1025,3 hPa 0,0 l/m 0 min 0 min 0,0 UV-I 0 W/m 0,0 km/h (0 Bft)
05.07.2013 03:08 17,3 C 16,2 C 88 % 1025,3 hPa 0,0 l/m 0 min 0 min 0,0 UV-I 0 W/m 0,0 km/h (0 Bft)
05.07.2013 03:10 17,3 C 16,2 C 89 % 1025,3 hPa 0,0 l/m 0 min 0 min 0,0 UV-I 0 W/m 0,0 km/h (0 Bft)
05.07.2013 03:12 17,3 C 16,2 C 89 % 1025,3 hPa 0,0 l/m 0 min 0 min 0,0 UV-I 0 W/m 0,0 km/h (0 Bft)
05.07.2013 03:14 17,3 C 16,2 C 89 % 1025,4 hPa 0,0 l/m 0 min 0 min 0,0 UV-I 0 W/m 0,0 km/h (0 Bft)
05.07.2013 03:16 17,3 C 16,2 C 89 % 1025,4 hPa 0,0 l/m 0 min 0 min 0,0 UV-I 0 W/m 0,0 km/h (0 Bft)
05.07.2013 03:18 17,3 C 16,2 C 89 % 1025,4 hPa 0,0 l/m 0 min 0 min 0,0 UV-I 0 W/m 0,0 km/h (0 Bft)
05.07.2013 03:20 17,3 C 16,2 C 89 % 1025,4 hPa 0,0 l/m 0 min 0 min 0,0 UV-I 0 W/m 0,0 km/h (0 Bft)
05.07.2013 03:22 17,3 C 15,7 C 89 % 1025,4 hPa 0,0 l/m 0 min 0 min 0,0 UV-I 0 W/m 0,0 km/h (0 Bft)
05.07.2013 03:24 17,3 C 15,7 C 89 % 1025,4 hPa 0,0 l/m 0 min 0 min 0,0 UV-I 0 W/m 0,0 km/h (0 Bft)
05.07.2013 03:26 17,3 C 15,7 C 89 % 1025,4 hPa 0,0 l/m 0 min 0 min 0,0 UV-I 0 W/m 0,0 km/h (0 Bft)
05.07.2013 03:28 17,3 C 15,7 C 89 % 1025,4 hPa 0,0 l/m 0 min 0 min 0,0 UV-I 0 W/m 0,0 km/h (0 Bft)
05.07.2013 03:30 17,3 C 15,7 C 89 % 1025,4 hPa 0,0 l/m 0 min 0 min 0,0 UV-I 0 W/m 0,0 km/h (0 Bft)
05.07.2013 03:32 17,3 C 15,7 C 89 % 1025,4 hPa 0,0 l/m 0 min 0 min 0,0 UV-I 0 W/m 0,0 km/h (0 Bft)
05.07.2013 03:34 17,2 C 15,7 C 89 % 1025,4 hPa 0,0 l/m 0 min 0 min 0,0 UV-I 0 W/m 0,0 km/h (0 Bft)
05.07.2013 03:36 17,2 C 15,7 C 89 % 1025,4 hPa 0,0 l/m 0 min 0 min 0,0 UV-I 0 W/m 0,0 km/h (0 Bft)
05.07.2013 03:38 17,2 C 15,7 C 89 % 1025,5 hPa 0,0 l/m 0 min 0 min 0,0 UV-I 0 W/m 0,0 km/h (0 Bft)
05.07.2013 03:40 17,2 C 15,7 C 89 % 1025,5 hPa 0,0 l/m 0 min 0 min 0,0 UV-I 0 W/m 0,0 km/h (0 Bft)
05.07.2013 03:42 17,2 C 15,7 C 89 % 1025,4 hPa 0,0 l/m 0 min 0 min 0,0 UV-I 0 W/m 0,0 km/h (0 Bft)
05.07.2013 03:44 17,2 C 15,7 C 89 % 1025,4 hPa 0,0 l/m 0 min 0 min 0,0 UV-I 0 W/m 0,0 km/h (0 Bft)
05.07.2013 03:46 17,2 C 15,7 C 89 % 1025,4 hPa 0,0 l/m 0 min 0 min 0,0 UV-I 0 W/m 0,0 km/h (0 Bft)
05.07.2013 03:48 17,2 C 15,7 C 89 % 1025,4 hPa 0,0 l/m 0 min 0 min 0,0 UV-I 0 W/m 0,0 km/h (0 Bft)
05.07.2013 03:50 17,2 C 15,7 C 89 % 1025,4 hPa 0,0 l/m 0 min 0 min 0,0 UV-I 0 W/m 0,0 km/h (0 Bft)
05.07.2013 03:52 17,2 C 15,7 C 89 % 1025,4 hPa 0,0 l/m 0 min 0 min 0,0 UV-I 0 W/m 0,0 km/h (0 Bft)
05.07.2013 03:54 17,2 C 15,7 C 89 % 1025,5 hPa 0,0 l/m 0 min 0 min 0,0 UV-I 0 W/m 0,0 km/h (0 Bft)
05.07.2013 03:56 17,2 C 15,7 C 89 % 1025,5 hPa 0,0 l/m 0 min 0 min 0,0 UV-I 0 W/m 0,0 km/h (0 Bft)
05.07.2013 03:58 17,2 C 15,7 C 89 % 1025,5 hPa 0,0 l/m 0 min 0 min 0,0 UV-I 0 W/m 0,0 km/h (0 Bft)
05.07.2013 04:00 17,2 C 15,7 C 89 % 1025,5 hPa 0,0 l/m 0 min 0 min 0,0 UV-I 0 W/m 0,0 km/h (0 Bft)
05.07.2013 04:02 17,2 C 15,7 C 89 % 1025,5 hPa 0,0 l/m 0 min 0 min 0,0 UV-I 0 W/m 0,0 km/h (0 Bft)
05.07.2013 04:06 17,1 C 15,7 C 90 % 1025,5 hPa 0,0 l/m 0 min 0 min 0,0 UV-I 0 W/m 0,0 km/h (0 Bft)
05.07.2013 04:08 17,1 C 15,7 C 90 % 1025,4 hPa 0,0 l/m 0 min 0 min 0,0 UV-I 0 W/m 0,0 km/h (0 Bft)
05.07.2013 04:10 17,1 C 15,7 C 89 % 1025,4 hPa 0,0 l/m 0 min 0 min 0,0 UV-I 0 W/m 0,0 km/h (0 Bft)
05.07.2013 04:12 17,1 C 15,7 C 90 % 1025,4 hPa 0,0 l/m 0 min 0 min 0,0 UV-I 0 W/m 0,0 km/h (0 Bft)
05.07.2013 04:14 17,1 C 15,7 C 90 % 1025,5 hPa 0,0 l/m 0 min 0 min 0,0 UV-I 0 W/m 0,0 km/h (0 Bft)
05.07.2013 04:16 17,1 C 15,7 C 90 % 1025,4 hPa 0,0 l/m 0 min 0 min 0,0 UV-I 0 W/m 0,0 km/h (0 Bft)
05.07.2013 04:18 17,1 C 15,7 C 90 % 1025,5 hPa 0,0 l/m 0 min 0 min 0,0 UV-I 0 W/m 0,0 km/h (0 Bft)
05.07.2013 04:20 17,1 C 15,7 C 90 % 1025,4 hPa 0,0 l/m 0 min 0 min 0,0 UV-I 0 W/m 0,0 km/h (0 Bft)
05.07.2013 04:22 17,1 C 15,7 C 90 % 1025,5 hPa 0,0 l/m 0 min 0 min 0,0 UV-I 0 W/m 0,0 km/h (0 Bft)
05.07.2013 04:24 17,1 C 15,1 C 90 % 1025,5 hPa 0,0 l/m 0 min 0 min 0,0 UV-I 0 W/m 0,0 km/h (0 Bft)
05.07.2013 04:26 17,1 C 15,1 C 90 % 1025,5 hPa 0,0 l/m 0 min 0 min 0,0 UV-I 0 W/m 0,0 km/h (0 Bft)
05.07.2013 04:28 17,1 C 15,1 C 90 % 1025,5 hPa 0,0 l/m 0 min 0 min 0,0 UV-I 0 W/m 0,0 km/h (0 Bft)
05.07.2013 04:30 17,0 C 15,1 C 90 % 1025,5 hPa 0,0 l/m 0 min 0 min 0,0 UV-I 0 W/m 0,0 km/h (0 Bft)
05.07.2013 04:32 17,0 C 15,1 C 90 % 1025,5 hPa 0,0 l/m 0 min 0 min 0,0 UV-I 0 W/m 0,0 km/h (0 Bft)
05.07.2013 04:34 17,0 C 15,1 C 90 % 1025,5 hPa 0,0 l/m 0 min 0 min 0,0 UV-I 0 W/m 0,0 km/h (0 Bft)
05.07.2013 04:36 17,0 C 15,1 C 90 % 1025,5 hPa 0,0 l/m 0 min 0 min 0,0 UV-I 0 W/m 0,0 km/h (0 Bft)
05.07.2013 04:38 16,9 C 15,1 C 90 % 1025,5 hPa 0,0 l/m 0 min 0 min 0,0 UV-I 0 W/m 0,0 km/h (0 Bft)
05.07.2013 04:40 16,9 C 15,1 C 90 % 1025,5 hPa 0,0 l/m 0 min 0 min 0,0 UV-I 0 W/m 0,0 km/h (0 Bft)
05.07.2013 04:42 16,9 C 15,1 C 90 % 1025,5 hPa 0,0 l/m 0 min 0 min 0,0 UV-I 0 W/m 0,0 km/h (0 Bft)
05.07.2013 04:44 16,9 C 15,1 C 90 % 1025,6 hPa 0,0 l/m 0 min 0 min 0,0 UV-I 0 W/m 0,0 km/h (0 Bft)
05.07.2013 04:46 16,9 C 15,1 C 90 % 1025,6 hPa 0,0 l/m 0 min 0 min 0,0 UV-I 0 W/m 0,0 km/h (0 Bft)
05.07.2013 04:48 16,8 C 15,1 C 90 % 1025,6 hPa 0,0 l/m 0 min 0 min 0,0 UV-I 0 W/m 0,0 km/h (0 Bft)
05.07.2013 04:50 16,8 C 15,1 C 90 % 1025,6 hPa 0,0 l/m 0 min 0 min 0,0 UV-I 0 W/m 0,0 km/h (0 Bft)
05.07.2013 04:52 16,8 C 15,1 C 90 % 1025,6 hPa 0,0 l/m 0 min 0 min 0,0 UV-I 0 W/m 0,0 km/h (0 Bft)
05.07.2013 04:54 16,8 C 15,1 C 90 % 1025,5 hPa 0,0 l/m 0 min 0 min 0,0 UV-I 0 W/m 0,0 km/h (0 Bft)
05.07.2013 04:56 16,8 C 15,1 C 90 % 1025,5 hPa 0,0 l/m 0 min 0 min 0,0 UV-I 0 W/m 0,0 km/h (0 Bft)
05.07.2013 04:58 16,8 C 15,1 C 90 % 1025,5 hPa 0,0 l/m 0 min 0 min 0,0 UV-I 0 W/m 0,0 km/h (0 Bft)
05.07.2013 05:00 16,8 C 15,1 C 90 % 1025,6 hPa 0,0 l/m 0 min 0 min 0,0 UV-I 0 W/m 0,0 km/h (0 Bft)
05.07.2013 05:02 16,8 C 15,1 C 90 % 1025,6 hPa 0,0 l/m 0 min 0 min 0,0 UV-I 0 W/m 0,0 km/h (0 Bft)
05.07.2013 05:06 16,7 C 15,1 C 90 % 1025,6 hPa 0,0 l/m 0 min 0 min 0,0 UV-I 0 W/m 0,0 km/h (0 Bft)
05.07.2013 05:08 16,7 C 15,1 C 90 % 1025,6 hPa 0,0 l/m 0 min 0 min 0,0 UV-I 0 W/m 0,0 km/h (0 Bft)
05.07.2013 05:10 16,7 C 15,1 C 90 % 1025,6 hPa 0,0 l/m 0 min 0 min 0,0 UV-I 0 W/m 0,0 km/h (0 Bft)
05.07.2013 05:12 16,7 C 14,6 C 90 % 1025,6 hPa 0,0 l/m 0 min 0 min 0,0 UV-I 0 W/m 0,0 km/h (0 Bft)
05.07.2013 05:14 16,7 C 14,6 C 90 % 1025,6 hPa 0,0 l/m 0 min 0 min 0,0 UV-I 0 W/m 0,0 km/h (0 Bft)
05.07.2013 05:16 16,6 C 14,6 C 90 % 1025,6 hPa 0,0 l/m 0 min 0 min 0,0 UV-I 0 W/m 0,0 km/h (0 Bft)
05.07.2013 05:18 16,6 C 14,6 C 90 % 1025,7 hPa 0,0 l/m 0 min 0 min 0,0 UV-I 0 W/m 0,0 km/h (0 Bft)
05.07.2013 05:20 16,6 C 14,6 C 90 % 1025,6 hPa 0,0 l/m 0 min 0 min 0,0 UV-I 0 W/m 0,0 km/h (0 Bft)
05.07.2013 05:22 16,6 C 14,6 C 90 % 1025,6 hPa 0,0 l/m 0 min 0 min 0,0 UV-I 0 W/m 0,0 km/h (0 Bft)
05.07.2013 05:24 16,6 C 14,6 C 91 % 1025,6 hPa 0,0 l/m 0 min 0 min 0,0 UV-I 0 W/m 0,0 km/h (0 Bft)
05.07.2013 05:26 16,6 C 14,6 C 91 % 1025,7 hPa 0,0 l/m 0 min 0 min 0,0 UV-I 0 W/m 0,0 km/h (0 Bft)
05.07.2013 05:28 16,5 C 14,6 C 91 % 1025,7 hPa 0,0 l/m 0 min 0 min 0,0 UV-I 0 W/m 0,0 km/h (0 Bft)
05.07.2013 05:30 16,5 C 14,6 C 91 % 1025,7 hPa 0,0 l/m 0 min 0 min 0,0 UV-I 0 W/m 0,0 km/h (0 Bft)
05.07.2013 05:32 16,4 C 14,6 C 91 % 1025,7 hPa 0,0 l/m 0 min 0 min 0,0 UV-I 5 W/m 0,0 km/h (0 Bft)
05.07.2013 05:34 16,4 C 14,6 C 91 % 1025,7 hPa 0,0 l/m 0 min 0 min 0,0 UV-I 5 W/m 0,0 km/h (0 Bft)
05.07.2013 05:36 16,4 C 15,1 C 91 % 1025,7 hPa 0,0 l/m 0 min 0 min 0,0 UV-I 5 W/m 0,0 km/h (0 Bft)
05.07.2013 05:38 16,4 C 15,1 C 91 % 1025,7 hPa 0,0 l/m 0 min 0 min 0,0 UV-I 7 W/m 0,0 km/h (0 Bft)
05.07.2013 05:40 16,4 C 15,1 C 91 % 1025,6 hPa 0,0 l/m 0 min 0 min 0,0 UV-I 9 W/m 0,0 km/h (0 Bft)
05.07.2013 05:42 16,4 C 15,1 C 91 % 1025,7 hPa 0,0 l/m 0 min 0 min 0,0 UV-I 9 W/m 0,0 km/h (0 Bft)
05.07.2013 05:44 16,4 C 15,1 C 91 % 1025,7 hPa 0,0 l/m 0 min 0 min 0,0 UV-I 9 W/m 0,0 km/h (0 Bft)
05.07.2013 05:46 16,4 C 15,1 C 91 % 1025,8 hPa 0,0 l/m 0 min 0 min 0,0 UV-I 11 W/m 0,0 km/h (0 Bft)
05.07.2013 05:48 16,3 C 15,1 C 91 % 1025,8 hPa 0,0 l/m 0 min 0 min 0,0 UV-I 11 W/m 0,0 km/h (0 Bft)
05.07.2013 05:50 16,3 C 15,1 C 91 % 1025,8 hPa 0,0 l/m 0 min 0 min 0,0 UV-I 11 W/m 0,0 km/h (0 Bft)
05.07.2013 05:52 16,3 C 15,1 C 91 % 1025,8 hPa 0,0 l/m 0 min 0 min 0,0 UV-I 11 W/m 0,0 km/h (0 Bft)
05.07.2013 05:54 16,3 C 15,1 C 91 % 1025,8 hPa 0,0 l/m 0 min 0 min 0,0 UV-I 12 W/m 0,0 km/h (0 Bft)
05.07.2013 05:56 16,3 C 15,1 C 91 % 1025,9 hPa 0,0 l/m 0 min 0 min 0,0 UV-I 12 W/m 0,0 km/h (0 Bft)
05.07.2013 05:58 16,3 C 15,1 C 91 % 1025,9 hPa 0,0 l/m 0 min 0 min 0,0 UV-I 14 W/m 0,0 km/h (0 Bft)
05.07.2013 06:00 16,3 C 15,1 C 91 % 1025,8 hPa 0,0 l/m 0 min 0 min 0,0 UV-I 16 W/m 0,0 km/h (0 Bft)
05.07.2013 06:02 16,3 C 15,1 C 91 % 1025,9 hPa 0,0 l/m 0 min 0 min 0,0 UV-I 16 W/m 0,0 km/h (0 Bft)
05.07.2013 06:06 16,3 C 15,1 C 92 % 1025,9 hPa 0,0 l/m 0 min 0 min 0,0 UV-I 18 W/m 0,0 km/h (0 Bft)
05.07.2013 06:08 16,3 C 15,1 C 92 % 1025,9 hPa 0,0 l/m 0 min 0 min 0,0 UV-I 18 W/m 0,0 km/h (0 Bft)
05.07.2013 06:10 16,3 C 15,1 C 92 % 1025,9 hPa 0,0 l/m 0 min 0 min 0,0 UV-I 18 W/m 0,0 km/h (0 Bft)
05.07.2013 06:12 16,3 C 15,1 C 92 % 1026,0 hPa 0,0 l/m 0 min 0 min 0,0 UV-I 18 W/m 0,0 km/h (0 Bft)
05.07.2013 06:14 16,3 C 15,1 C 92 % 1026,0 hPa 0,0 l/m 0 min 0 min 0,0 UV-I 18 W/m 0,0 km/h (0 Bft)
05.07.2013 06:16 16,3 C 15,1 C 92 % 1026,0 hPa 0,0 l/m 0 min 0 min 0,0 UV-I 18 W/m 0,0 km/h (0 Bft)
05.07.2013 06:18 16,3 C 15,1 C 92 % 1026,0 hPa 0,0 l/m 0 min 0 min 0,0 UV-I 21 W/m 0,0 km/h (0 Bft)
05.07.2013 06:20 16,3 C 15,1 C 92 % 1026,0 hPa 0,0 l/m 0 min 0 min 0,0 UV-I 23 W/m 0,0 km/h (0 Bft)
05.07.2013 06:22 16,3 C 15,7 C 92 % 1026,0 hPa 0,0 l/m 0 min 0 min 0,0 UV-I 26 W/m 0,0 km/h (0 Bft)
05.07.2013 06:24 16,3 C 15,7 C 92 % 1026,0 hPa 0,0 l/m 0 min 0 min 0,0 UV-I 28 W/m 0,0 km/h (0 Bft)
05.07.2013 06:26 16,3 C 15,7 C 92 % 1026,0 hPa 0,0 l/m 0 min 0 min 0,0 UV-I 28 W/m 0,0 km/h (0 Bft)
05.07.2013 06:28 16,3 C 15,7 C 92 % 1026,0 hPa 0,0 l/m 0 min 0 min 0,0 UV-I 28 W/m 0,0 km/h (0 Bft)
05.07.2013 06:30 16,3 C 15,7 C 93 % 1026,1 hPa 0,0 l/m 0 min 0 min 0,0 UV-I 32 W/m 0,0 km/h (0 Bft)
05.07.2013 06:32 16,3 C 15,7 C 93 % 1026,1 hPa 0,0 l/m 0 min 0 min 0,0 UV-I 32 W/m 0,0 km/h (0 Bft)
05.07.2013 06:34 16,3 C 15,7 C 93 % 1026,1 hPa 0,0 l/m 0 min 0 min 0,0 UV-I 28 W/m 0,0 km/h (0 Bft)
05.07.2013 06:36 16,3 C 15,7 C 93 % 1026,1 hPa 0,0 l/m 0 min 0 min 0,0 UV-I 28 W/m 0,0 km/h (0 Bft)
05.07.2013 06:38 16,3 C 15,7 C 93 % 1026,1 hPa 0,0 l/m 0 min 0 min 0,0 UV-I 33 W/m 0,0 km/h (0 Bft)
05.07.2013 06:40 16,3 C 15,7 C 93 % 1026,1 hPa 0,0 l/m 0 min 0 min 0,0 UV-I 37 W/m 0,0 km/h (0 Bft)
05.07.2013 06:42 16,3 C 15,7 C 93 % 1026,1 hPa 0,0 l/m 0 min 0 min 0,0 UV-I 39 W/m 0,0 km/h (0 Bft)
05.07.2013 06:44 16,3 C 15,7 C 93 % 1026,1 hPa 0,0 l/m 0 min 0 min 0,0 UV-I 44 W/m 0,0 km/h (0 Bft)
05.07.2013 06:46 16,3 C 15,7 C 93 % 1026,1 hPa 0,0 l/m 0 min 0 min 0,0 UV-I 54 W/m 0,0 km/h (0 Bft)
05.07.2013 06:48 16,4 C 15,7 C 93 % 1026,2 hPa 0,0 l/m 0 min 0 min 0,0 UV-I 58 W/m 0,0 km/h (0 Bft)
05.07.2013 06:50 16,4 C 15,7 C 93 % 1026,2 hPa 0,0 l/m 0 min 0 min 0,0 UV-I 51 W/m 0,0 km/h (0 Bft)
05.07.2013 06:52 16,4 C 15,7 C 93 % 1026,3 hPa 0,0 l/m 0 min 0 min 0,0 UV-I 53 W/m 0,0 km/h (0 Bft)
05.07.2013 06:54 16,4 C 15,7 C 93 % 1026,3 hPa 0,0 l/m 0 min 0 min 0,0 UV-I 53 W/m 0,0 km/h (0 Bft)
05.07.2013 06:56 16,4 C 15,7 C 93 % 1026,3 hPa 0,0 l/m 0 min 0 min 0,0 UV-I 53 W/m 0,0 km/h (0 Bft)
05.07.2013 06:58 16,4 C 16,2 C 93 % 1026,3 hPa 0,0 l/m 0 min 0 min 0,0 UV-I 53 W/m 0,0 km/h (0 Bft)
05.07.2013 07:00 16,4 C 16,2 C 93 % 1026,3 hPa 0,0 l/m 0 min 0 min 0,0 UV-I 54 W/m 0,0 km/h (0 Bft)
05.07.2013 07:02 16,4 C 16,2 C 93 % 1026,2 hPa 0,0 l/m 0 min 0 min 0,0 UV-I 54 W/m 0,0 km/h (0 Bft)
05.07.2013 07:06 16,5 C 16,2 C 93 % 1026,4 hPa 0,0 l/m 0 min 0 min 0,0 UV-I 46 W/m 0,0 km/h (0 Bft)
05.07.2013 07:08 16,5 C 16,2 C 93 % 1026,4 hPa 0,0 l/m 0 min 0 min 0,0 UV-I 40 W/m 0,0 km/h (0 Bft)
05.07.2013 07:10 16,5 C 16,2 C 93 % 1026,4 hPa 0,0 l/m 0 min 0 min 0,0 UV-I 39 W/m 0,0 km/h (0 Bft)
05.07.2013 07:12 16,6 C 16,2 C 93 % 1026,4 hPa 0,0 l/m 0 min 0 min 0,0 UV-I 40 W/m 0,0 km/h (0 Bft)
05.07.2013 07:14 16,6 C 16,2 C 93 % 1026,5 hPa 0,0 l/m 0 min 0 min 0,0 UV-I 39 W/m 0,0 km/h (0 Bft)
05.07.2013 07:16 16,6 C 16,2 C 93 % 1026,5 hPa 0,0 l/m 0 min 0 min 0,0 UV-I 37 W/m 0,0 km/h (0 Bft)
05.07.2013 07:18 16,6 C 16,2 C 93 % 1026,5 hPa 0,0 l/m 0 min 0 min 0,0 UV-I 40 W/m 0,0 km/h (0 Bft)
05.07.2013 07:20 16,6 C 16,2 C 93 % 1026,5 hPa 0,0 l/m 0 min 0 min 0,0 UV-I 42 W/m 0,0 km/h (0 Bft)
05.07.2013 07:22 16,6 C 16,2 C 93 % 1026,5 hPa 0,0 l/m 0 min 0 min 0,0 UV-I 42 W/m 0,0 km/h (0 Bft)
05.07.2013 07:24 16,6 C 16,2 C 94 % 1026,6 hPa 0,0 l/m 0 min 0 min 0,0 UV-I 46 W/m 0,0 km/h (0 Bft)
05.07.2013 07:26 16,7 C 16,2 C 94 % 1026,7 hPa 0,0 l/m 0 min 0 min 0,0 UV-I 54 W/m 0,0 km/h (0 Bft)
05.07.2013 07:28 16,7 C 16,2 C 94 % 1026,7 hPa 0,0 l/m 0 min 0 min 0,0 UV-I 62 W/m 0,0 km/h (0 Bft)
05.07.2013 07:30 16,7 C 16,2 C 94 % 1026,7 hPa 0,0 l/m 0 min 0 min 0,0 UV-I 65 W/m 0,0 km/h (0 Bft)
05.07.2013 07:32 16,7 C 16,2 C 94 % 1026,7 hPa 0,0 l/m 0 min 0 min 0,0 UV-I 72 W/m 0,0 km/h (0 Bft)
05.07.2013 07:34 16,7 C 16,2 C 94 % 1026,7 hPa 0,0 l/m 0 min 0 min 0,0 UV-I 74 W/m 0,0 km/h (0 Bft)
05.07.2013 07:36 16,7 C 16,2 C 94 % 1026,8 hPa 0,0 l/m 0 min 0 min 0,0 UV-I 74 W/m 0,0 km/h (0 Bft)
05.07.2013 07:38 16,8 C 16,2 C 94 % 1026,9 hPa 0,0 l/m 0 min 0 min 0,0 UV-I 76 W/m 0,0 km/h (0 Bft)
05.07.2013 07:40 16,8 C 16,2 C 94 % 1026,9 hPa 0,0 l/m 0 min 0 min 0,0 UV-I 81 W/m 0,0 km/h (0 Bft)
05.07.2013 07:42 16,8 C 16,8 C 94 % 1026,9 hPa 0,0 l/m 0 min 0 min 0,0 UV-I 88 W/m 0,0 km/h (0 Bft)
05.07.2013 07:44 16,8 C 16,8 C 94 % 1026,9 hPa 0,0 l/m 0 min 0 min 0,0 UV-I 98 W/m 0,0 km/h (0 Bft)
05.07.2013 07:46 16,8 C 16,8 C 94 % 1026,9 hPa 0,0 l/m 0 min 0 min 0,0 UV-I 100 W/m 0,0 km/h (0 Bft)
05.07.2013 07:48 16,8 C 16,8 C 94 % 1026,9 hPa 0,0 l/m 0 min 0 min 0,0 UV-I 100 W/m 0,0 km/h (0 Bft)
05.07.2013 07:50 16,8 C 16,8 C 94 % 1026,9 hPa 0,0 l/m 0 min 0 min 0,0 UV-I 100 W/m 0,0 km/h (0 Bft)
05.07.2013 07:52 16,9 C 16,8 C 94 % 1027,0 hPa 0,0 l/m 0 min 0 min 0,0 UV-I 102 W/m 0,0 km/h (0 Bft)
05.07.2013 07:54 16,9 C 16,8 C 94 % 1026,9 hPa 0,0 l/m 0 min 0 min 0,0 UV-I 104 W/m 0,0 km/h (0 Bft)
05.07.2013 07:56 16,9 C 16,8 C 93 % 1026,9 hPa 0,0 l/m 0 min 0 min 0,0 UV-I 105 W/m 0,0 km/h (0 Bft)
05.07.2013 07:58 16,9 C 16,8 C 93 % 1026,9 hPa 0,0 l/m 0 min 0 min 0,0 UV-I 107 W/m 0,0 km/h (0 Bft)
05.07.2013 08:00 16,9 C 16,8 C 93 % 1027,0 hPa 0,0 l/m 0 min 0 min 0,0 UV-I 113 W/m 0,0 km/h (0 Bft)
05.07.2013 08:02 16,9 C 16,8 C 93 % 1027,0 hPa 0,0 l/m 0 min 0 min 0,0 UV-I 130 W/m 0,0 km/h (0 Bft)
05.07.2013 08:06 17,0 C 17,3 C 93 % 1027,0 hPa 0,0 l/m 0 min 0 min 0,0 UV-I 144 W/m 0,0 km/h (0 Bft)
05.07.2013 08:08 17,1 C 17,3 C 93 % 1026,9 hPa 0,0 l/m 0 min 0 min 0,0 UV-I 142 W/m 0,0 km/h (0 Bft)
05.07.2013 08:10 17,1 C 17,3 C 93 % 1027,0 hPa 0,0 l/m 0 min 0 min 0,0 UV-I 137 W/m 0,0 km/h (0 Bft)
05.07.2013 08:12 17,1 C 16,8 C 93 % 1027,0 hPa 0,0 l/m 0 min 0 min 0,0 UV-I 141 W/m 0,0 km/h (0 Bft)
05.07.2013 08:14 17,1 C 17,3 C 93 % 1027,1 hPa 0,0 l/m 0 min 0 min 0,0 UV-I 160 W/m 0,0 km/h (0 Bft)
05.07.2013 08:16 17,2 C 17,3 C 93 % 1027,1 hPa 0,0 l/m 0 min 0 min 0,0 UV-I 165 W/m 0,0 km/h (0 Bft)
05.07.2013 08:18 17,2 C 17,3 C 92 % 1027,1 hPa 0,0 l/m 0 min 0 min 0,0 UV-I 156 W/m 0,0 km/h (0 Bft)
05.07.2013 08:20 17,3 C 17,3 C 92 % 1027,1 hPa 0,0 l/m 0 min 0 min 0,0 UV-I 148 W/m 0,0 km/h (0 Bft)
05.07.2013 08:22 17,3 C 17,3 C 92 % 1027,2 hPa 0,0 l/m 0 min 0 min 0,0 UV-I 148 W/m 0,0 km/h (0 Bft)
05.07.2013 08:24 17,3 C 17,9 C 92 % 1027,2 hPa 0,0 l/m 0 min 0 min 0,0 UV-I 153 W/m 0,0 km/h (0 Bft)
05.07.2013 08:26 17,4 C 17,9 C 92 % 1027,2 hPa 0,0 l/m 0 min 0 min 0,0 UV-I 155 W/m 0,0 km/h (0 Bft)
05.07.2013 08:28 17,4 C 17,9 C 92 % 1027,2 hPa 0,0 l/m 0 min 0 min 0,0 UV-I 156 W/m 0,0 km/h (0 Bft)
05.07.2013 08:30 17,5 C 17,9 C 92 % 1027,2 hPa 0,0 l/m 0 min 0 min 0,0 UV-I 155 W/m 0,0 km/h (0 Bft)
05.07.2013 08:32 17,5 C 17,9 C 92 % 1027,3 hPa 0,0 l/m 0 min 0 min 0,0 UV-I 153 W/m 0,0 km/h (0 Bft)
05.07.2013 08:34 17,6 C 17,3 C 92 % 1027,3 hPa 0,0 l/m 0 min 0 min 0,0 UV-I 158 W/m 0,0 km/h (0 Bft)
05.07.2013 08:36 17,6 C 17,9 C 91 % 1027,3 hPa 0,0 l/m 0 min 0 min 0,0 UV-I 162 W/m 0,0 km/h (0 Bft)
05.07.2013 08:38 17,6 C 17,9 C 91 % 1027,4 hPa 0,0 l/m 0 min 0 min 0,0 UV-I 163 W/m 0,0 km/h (0 Bft)
05.07.2013 08:40 17,7 C 17,9 C 91 % 1027,4 hPa 0,0 l/m 0 min 0 min 0,0 UV-I 169 W/m 0,0 km/h (0 Bft)
05.07.2013 08:42 17,7 C 17,9 C 91 % 1027,3 hPa 0,0 l/m 0 min 0 min 0,0 UV-I 178 W/m 0,0 km/h (0 Bft)
05.07.2013 08:44 17,7 C 17,9 C 91 % 1027,4 hPa 0,0 l/m 0 min 0 min 0,0 UV-I 179 W/m 0,0 km/h (0 Bft)
05.07.2013 08:46 17,8 C 17,9 C 91 % 1027,4 hPa 0,0 l/m 0 min 0 min 0,0 UV-I 178 W/m 0,0 km/h (0 Bft)
05.07.2013 08:48 17,8 C 17,9 C 91 % 1027,5 hPa 0,0 l/m 0 min 0 min 0,0 UV-I 176 W/m 0,0 km/h (0 Bft)
05.07.2013 08:50 17,8 C 17,9 C 90 % 1027,5 hPa 0,0 l/m 0 min 0 min 0,0 UV-I 185 W/m 0,0 km/h (0 Bft)
05.07.2013 08:52 17,9 C 17,9 C 90 % 1027,5 hPa 0,0 l/m 0 min 0 min 0,0 UV-I 195 W/m 0,0 km/h (0 Bft)
05.07.2013 08:54 17,9 C 17,9 C 90 % 1027,5 hPa 0,0 l/m 0 min 0 min 0,0 UV-I 213 W/m 0,0 km/h (0 Bft)
05.07.2013 08:56 18,0 C 18,4 C 90 % 1027,5 hPa 0,0 l/m 0 min 0 min 0,0 UV-I 225 W/m 0,0 km/h (0 Bft)
05.07.2013 08:58 18,1 C 18,4 C 90 % 1027,5 hPa 0,0 l/m 0 min 0 min 0,0 UV-I 239 W/m 0,0 km/h (0 Bft)
05.07.2013 09:00 18,1 C 18,4 C 90 % 1027,6 hPa 0,0 l/m 0 min 0 min 0,5 UV-I 250 W/m 0,0 km/h (0 Bft)
05.07.2013 09:02 18,1 C 18,4 C 89 % 1027,6 hPa 0,0 l/m 0 min 0 min 0,5 UV-I 253 W/m 0,0 km/h (0 Bft)
05.07.2013 09:06 18,3 C 18,4 C 89 % 1027,6 hPa 0,0 l/m 0 min 0 min 0,0 UV-I 232 W/m 0,0 km/h (0 Bft)
05.07.2013 09:08 18,3 C 18,4 C 89 % 1027,6 hPa 0,0 l/m 0 min 0 min 0,0 UV-I 230 W/m 0,0 km/h (0 Bft)
05.07.2013 09:10 18,3 C 18,4 C 89 % 1027,6 hPa 0,0 l/m 0 min 0 min 0,0 UV-I 216 W/m 7,7 km/h (2 Bft)
05.07.2013 09:12 18,4 C 18,4 C 89 % 1027,7 hPa 0,0 l/m 0 min 0 min 0,0 UV-I 204 W/m 7,7 km/h (2 Bft)
05.07.2013 09:14 18,4 C 18,4 C 88 % 1027,8 hPa 0,0 l/m 0 min 0 min 0,0 UV-I 225 W/m 2,6 km/h (1 Bft)
05.07.2013 09:16 18,4 C 18,4 C 88 % 1027,8 hPa 0,0 l/m 0 min 0 min 0,0 UV-I 237 W/m 2,6 km/h (1 Bft)
05.07.2013 09:18 18,6 C 19,0 C 88 % 1027,8 hPa 0,0 l/m 0 min 0 min 0,5 UV-I 244 W/m 0,0 km/h (0 Bft)
05.07.2013 09:20 18,6 C 19,0 C 88 % 1027,9 hPa 0,0 l/m 0 min 0 min 0,6 UV-I 264 W/m 0,0 km/h (0 Bft)
05.07.2013 09:22 18,7 C 19,0 C 88 % 1027,8 hPa 0,0 l/m 0 min 0 min 0,6 UV-I 281 W/m 2,6 km/h (1 Bft)
05.07.2013 09:24 18,7 C 19,0 C 88 % 1027,9 hPa 0,0 l/m 0 min 0 min 0,6 UV-I 269 W/m 12,9 km/h (3 Bft)
05.07.2013 09:26 18,7 C 19,0 C 87 % 1027,8 hPa 0,0 l/m 0 min 0 min 0,7 UV-I 274 W/m 10,3 km/h (2 Bft)
05.07.2013 09:28 18,7 C 19,0 C 87 % 1027,9 hPa 0,0 l/m 0 min 0 min 0,7 UV-I 279 W/m 0,0 km/h (0 Bft)
05.07.2013 09:30 18,8 C 19,0 C 87 % 1027,9 hPa 0,0 l/m 0 min 0 min 0,6 UV-I 269 W/m 0,0 km/h (0 Bft)
05.07.2013 09:32 18,8 C 19,0 C 87 % 1027,9 hPa 0,0 l/m 0 min 0 min 0,7 UV-I 267 W/m 5,1 km/h (1 Bft)
05.07.2013 09:34 18,9 C 19,0 C 86 % 1028,0 hPa 0,0 l/m 0 min 0 min 0,8 UV-I 292 W/m 7,7 km/h (2 Bft)
05.07.2013 09:36 18,9 C 19,6 C 86 % 1028,0 hPa 0,0 l/m 0 min 0 min 0,8 UV-I 292 W/m 2,6 km/h (1 Bft)
05.07.2013 09:38 18,9 C 19,6 C 86 % 1028,1 hPa 0,0 l/m 0 min 0 min 0,8 UV-I 287 W/m 0,0 km/h (0 Bft)
05.07.2013 09:40 19,0 C 19,6 C 86 % 1028,0 hPa 0,0 l/m 0 min 0 min 0,8 UV-I 283 W/m 0,0 km/h (0 Bft)
05.07.2013 09:42 19,1 C 19,6 C 86 % 1028,0 hPa 0,0 l/m 0 min 0 min 0,9 UV-I 290 W/m 2,6 km/h (1 Bft)
05.07.2013 09:44 19,1 C 19,6 C 86 % 1028,0 hPa 0,0 l/m 0 min 0 min 0,9 UV-I 294 W/m 7,7 km/h (2 Bft)
05.07.2013 09:46 19,1 C 19,6 C 85 % 1028,0 hPa 0,0 l/m 0 min 0 min 0,9 UV-I 279 W/m 2,6 km/h (1 Bft)
05.07.2013 09:48 19,2 C 19,6 C 85 % 1028,0 hPa 0,0 l/m 0 min 0 min 1,0 UV-I 278 W/m 7,7 km/h (2 Bft)
05.07.2013 09:50 19,2 C 19,6 C 85 % 1028,0 hPa 0,0 l/m 0 min 0 min 1,0 UV-I 287 W/m 5,1 km/h (1 Bft)
05.07.2013 09:52 19,3 C 19,0 C 85 % 1028,0 hPa 0,0 l/m 0 min 0 min 1,1 UV-I 299 W/m 7,7 km/h (2 Bft)
05.07.2013 09:54 19,3 C 19,6 C 85 % 1028,1 hPa 0,0 l/m 0 min 0 min 1,1 UV-I 297 W/m 0,0 km/h (0 Bft)
05.07.2013 09:56 19,3 C 19,6 C 85 % 1028,1 hPa 0,0 l/m 0 min 0 min 1,1 UV-I 292 W/m 7,7 km/h (2 Bft)
05.07.2013 09:58 19,3 C 19,0 C 85 % 1028,1 hPa 0,0 l/m 0 min 0 min 1,2 UV-I 302 W/m 10,3 km/h (2 Bft)
05.07.2013 10:00 19,3 C 19,0 C 84 % 1028,0 hPa 0,0 l/m 0 min 0 min 1,3 UV-I 311 W/m 7,7 km/h (2 Bft)
05.07.2013 10:02 19,3 C 19,0 C 84 % 1028,1 hPa 0,0 l/m 0 min 0 min 1,2 UV-I 313 W/m 5,1 km/h (1 Bft)
05.07.2013 10:06 19,3 C 19,0 C 84 % 1028,1 hPa 0,0 l/m 0 min 0 min 1,2 UV-I 323 W/m 10,3 km/h (2 Bft)
05.07.2013 10:08 19,4 C 19,6 C 84 % 1028,1 hPa 0,0 l/m 0 min 0 min 1,2 UV-I 287 W/m 0,0 km/h (0 Bft)
05.07.2013 10:10 19,4 C 19,6 C 85 % 1028,1 hPa 0,0 l/m 0 min 0 min 1,3 UV-I 283 W/m 0,0 km/h (0 Bft)
05.07.2013 10:12 19,4 C 19,6 C 84 % 1028,0 hPa 0,0 l/m 0 min 0 min 1,5 UV-I 318 W/m 0,0 km/h (0 Bft)
05.07.2013 10:14 19,4 C 19,6 C 84 % 1028,0 hPa 0,0 l/m 0 min 0 min 1,6 UV-I 346 W/m 7,7 km/h (2 Bft)
05.07.2013 10:16 19,4 C 19,6 C 84 % 1028,0 hPa 0,0 l/m 0 min 0 min 1,6 UV-I 332 W/m 5,1 km/h (1 Bft)
05.07.2013 10:18 19,5 C 20,1 C 84 % 1028,1 hPa 0,0 l/m 0 min 0 min 1,6 UV-I 353 W/m 0,0 km/h (0 Bft)
05.07.2013 10:20 19,5 C 20,1 C 84 % 1028,1 hPa 0,0 l/m 2 min 0 min 1,9 UV-I 403 W/m 0,0 km/h (0 Bft)
05.07.2013 10:22 19,6 C 22,3 C 83 % 1028,0 hPa 0,0 l/m 2 min 0 min 2,2 UV-I 642 W/m 7,7 km/h (2 Bft)
05.07.2013 10:24 19,6 C 22,9 C 83 % 1028,0 hPa 0,0 l/m 2 min 0 min 2,0 UV-I 394 W/m 7,7 km/h (2 Bft)
05.07.2013 10:26 19,7 C 23,4 C 83 % 1028,1 hPa 0,0 l/m 2 min 0 min 2,2 UV-I 601 W/m 7,7 km/h (2 Bft)
05.07.2013 10:28 19,8 C 24,6 C 84 % 1028,1 hPa 0,0 l/m 2 min 0 min 2,3 UV-I 670 W/m 0,0 km/h (0 Bft)
05.07.2013 10:30 19,9 C 25,1 C 84 % 1028,0 hPa 0,0 l/m 2 min 0 min 2,4 UV-I 670 W/m 2,6 km/h (1 Bft)
05.07.2013 10:32 20,1 C 24,0 C 83 % 1028,0 hPa 0,0 l/m 2 min 0 min 1,8 UV-I 670 W/m 12,9 km/h (3 Bft)
05.07.2013 10:34 20,1 C 24,0 C 82 % 1028,0 hPa 0,0 l/m 2 min 0 min 2,3 UV-I 705 W/m 15,4 km/h (3 Bft)
05.07.2013 10:36 20,2 C 23,4 C 82 % 1028,0 hPa 0,0 l/m 0 min 0 min 1,6 UV-I 343 W/m 10,3 km/h (2 Bft)
05.07.2013 10:38 20,0 C 22,3 C 81 % 1028,0 hPa 0,0 l/m 0 min 0 min 1,6 UV-I 294 W/m 2,6 km/h (1 Bft)
05.07.2013 10:40 19,9 C 22,3 C 82 % 1028,0 hPa 0,0 l/m 2 min 0 min 2,4 UV-I 390 W/m 7,7 km/h (2 Bft)
05.07.2013 10:42 19,8 C 23,4 C 83 % 1028,0 hPa 0,0 l/m 2 min 0 min 2,5 UV-I 654 W/m 0,0 km/h (0 Bft)
05.07.2013 10:44 19,9 C 24,6 C 83 % 1028,0 hPa 0,0 l/m 2 min 0 min 2,6 UV-I 710 W/m 7,7 km/h (2 Bft)
05.07.2013 10:46 20,1 C 25,7 C 83 % 1028,0 hPa 0,0 l/m 2 min 0 min 2,6 UV-I 700 W/m 12,9 km/h (3 Bft)
05.07.2013 10:48 20,4 C 26,2 C 83 % 1028,1 hPa 0,0 l/m 2 min 0 min 2,7 UV-I 671 W/m 2,6 km/h (1 Bft)
05.07.2013 10:50 20,4 C 26,2 C 81 % 1028,0 hPa 0,0 l/m 2 min 0 min 2,8 UV-I 694 W/m 0,0 km/h (0 Bft)
05.07.2013 10:52 20,4 C 26,2 C 79 % 1028,0 hPa 0,0 l/m 2 min 0 min 2,8 UV-I 686 W/m 12,9 km/h (3 Bft)
05.07.2013 10:54 20,6 C 26,8 C 81 % 1028,0 hPa 0,0 l/m 2 min 0 min 2,7 UV-I 696 W/m 0,0 km/h (0 Bft)
05.07.2013 10:56 20,6 C 26,2 C 80 % 1028,1 hPa 0,0 l/m 2 min 0 min 2,8 UV-I 738 W/m 2,6 km/h (1 Bft)
05.07.2013 10:58 20,6 C 25,1 C 79 % 1028,1 hPa 0,0 l/m 2 min 0 min 2,0 UV-I 408 W/m 2,6 km/h (1 Bft)
05.07.2013 11:00 20,4 C 24,6 C 80 % 1028,1 hPa 0,0 l/m 2 min 0 min 2,2 UV-I 570 W/m 0,0 km/h (0 Bft)
05.07.2013 11:02 20,7 C 25,1 C 81 % 1028,1 hPa 0,0 l/m 2 min 0 min 2,2 UV-I 605 W/m 0,0 km/h (0 Bft)
05.07.2013 11:06 20,7 C 25,1 C 78 % 1028,1 hPa 0,0 l/m 2 min 0 min 2,7 UV-I 791 W/m 2,6 km/h (1 Bft)
05.07.2013 11:08 20,7 C 25,1 C 79 % 1028,1 hPa 0,0 l/m 2 min 0 min 3,2 UV-I 531 W/m 2,6 km/h (1 Bft)
05.07.2013 11:10 20,8 C 25,1 C 79 % 1028,1 hPa 0,0 l/m 2 min 0 min 2,3 UV-I 531 W/m 0,0 km/h (0 Bft)
05.07.2013 11:12 20,9 C 25,1 C 78 % 1028,1 hPa 0,0 l/m 2 min 0 min 2,2 UV-I 485 W/m 2,6 km/h (1 Bft)
05.07.2013 11:14 20,8 C 24,6 C 77 % 1028,1 hPa 0,0 l/m 2 min 0 min 2,2 UV-I 506 W/m 2,6 km/h (1 Bft)
05.07.2013 11:16 20,7 C 24,0 C 77 % 1028,2 hPa 0,0 l/m 2 min 0 min 2,0 UV-I 432 W/m 0,0 km/h (0 Bft)
05.07.2013 11:18 20,6 C 23,4 C 76 % 1028,2 hPa 0,0 l/m 2 min 0 min 1,9 UV-I 427 W/m 0,0 km/h (0 Bft)
05.07.2013 11:20 20,6 C 22,9 C 77 % 1028,2 hPa 0,0 l/m 2 min 0 min 2,0 UV-I 445 W/m 2,6 km/h (1 Bft)
05.07.2013 11:22 20,5 C 22,9 C 78 % 1028,2 hPa 0,0 l/m 0 min 0 min 1,8 UV-I 394 W/m 2,6 km/h (1 Bft)
05.07.2013 11:24 20,4 C 22,9 C 78 % 1028,2 hPa 0,0 l/m 0 min 0 min 1,6 UV-I 346 W/m 2,6 km/h (1 Bft)
05.07.2013 11:26 20,4 C 22,3 C 78 % 1028,2 hPa 0,0 l/m 0 min 0 min 1,5 UV-I 295 W/m 0,0 km/h (0 Bft)
05.07.2013 11:28 20,3 C 21,8 C 79 % 1028,2 hPa 0,0 l/m 0 min 0 min 1,6 UV-I 306 W/m 2,6 km/h (1 Bft)
05.07.2013 11:30 20,3 C 21,8 C 78 % 1028,2 hPa 0,0 l/m 0 min 0 min 1,8 UV-I 353 W/m 0,0 km/h (0 Bft)
05.07.2013 11:32 20,4 C 22,3 C 80 % 1028,2 hPa 0,0 l/m 2 min 0 min 2,3 UV-I 513 W/m 0,0 km/h (0 Bft)
05.07.2013 11:34 20,6 C 23,4 C 80 % 1028,3 hPa 0,0 l/m 2 min 0 min 2,4 UV-I 504 W/m 0,0 km/h (0 Bft)
05.07.2013 11:36 20,7 C 23,4 C 79 % 1028,2 hPa 0,0 l/m 0 min 0 min 2,2 UV-I 413 W/m 2,6 km/h (1 Bft)
05.07.2013 11:38 20,8 C 23,4 C 79 % 1028,2 hPa 0,0 l/m 2 min 0 min 2,6 UV-I 554 W/m 2,6 km/h (1 Bft)
05.07.2013 11:40 20,8 C 24,0 C 78 % 1028,2 hPa 0,0 l/m 2 min 0 min 2,6 UV-I 538 W/m 7,7 km/h (2 Bft)
05.07.2013 11:42 20,9 C 24,0 C 79 % 1028,2 hPa 0,0 l/m 2 min 0 min 2,5 UV-I 510 W/m 10,3 km/h (2 Bft)
05.07.2013 11:44 20,8 C 22,9 C 76 % 1028,2 hPa 0,0 l/m 0 min 0 min 2,3 UV-I 427 W/m 12,9 km/h (3 Bft)
05.07.2013 11:46 20,6 C 22,3 C 76 % 1028,2 hPa 0,0 l/m 0 min 0 min 2,6 UV-I 432 W/m 15,4 km/h (3 Bft)
05.07.2013 11:48 20,5 C 22,3 C 78 % 1028,2 hPa 0,0 l/m 2 min 0 min 2,5 UV-I 520 W/m 7,7 km/h (2 Bft)
05.07.2013 11:50 20,4 C 22,3 C 78 % 1028,3 hPa 0,0 l/m 2 min 0 min 2,6 UV-I 515 W/m 7,7 km/h (2 Bft)
05.07.2013 11:52 20,4 C 22,3 C 79 % 1028,3 hPa 0,0 l/m 2 min 0 min 2,9 UV-I 601 W/m 2,6 km/h (1 Bft)
05.07.2013 11:54 20,8 C 23,4 C 79 % 1028,3 hPa 0,0 l/m 2 min 0 min 2,9 UV-I 619 W/m 2,6 km/h (1 Bft)
05.07.2013 11:56 21,0 C 23,4 C 79 % 1028,2 hPa 0,0 l/m 2 min 0 min 2,7 UV-I 557 W/m 2,6 km/h (1 Bft)
05.07.2013 11:58 21,2 C 24,0 C 77 % 1028,3 hPa 0,0 l/m 2 min 0 min 2,6 UV-I 504 W/m 2,6 km/h (1 Bft)
05.07.2013 12:00 21,1 C 23,4 C 76 % 1028,3 hPa 0,0 l/m 2 min 0 min 2,7 UV-I 552 W/m 12,9 km/h (3 Bft)
05.07.2013 12:02 21,1 C 24,0 C 78 % 1028,3 hPa 0,0 l/m 2 min 0 min 2,7 UV-I 563 W/m 10,3 km/h (2 Bft)
05.07.2013 12:06 21,2 C 23,4 C 77 % 1028,3 hPa 0,0 l/m 0 min 0 min 1,8 UV-I 316 W/m 10,3 km/h (2 Bft)
05.07.2013 12:08 21,1 C 22,9 C 77 % 1028,3 hPa 0,0 l/m 0 min 0 min 1,9 UV-I 311 W/m 2,6 km/h (1 Bft)
05.07.2013 12:10 21,1 C 22,3 C 78 % 1028,4 hPa 0,0 l/m 0 min 0 min 1,9 UV-I 301 W/m 2,6 km/h (1 Bft)
05.07.2013 12:12 20,9 C 22,9 C 77 % 1028,3 hPa 0,0 l/m 0 min 0 min 2,6 UV-I 309 W/m 5,1 km/h (1 Bft)
05.07.2013 12:14 20,9 C 24,0 C 78 % 1028,4 hPa 0,0 l/m 0 min 0 min 3,9 UV-I 309 W/m 2,6 km/h (1 Bft)
05.07.2013 12:16 21,2 C 26,2 C 78 % 1028,4 hPa 0,0 l/m 2 min 0 min 3,7 UV-I 875 W/m 0,0 km/h (0 Bft)
05.07.2013 12:18 21,6 C 26,2 C 79 % 1028,3 hPa 0,0 l/m 2 min 0 min 2,6 UV-I 851 W/m 7,7 km/h (2 Bft)
05.07.2013 12:20 21,8 C 26,8 C 76 % 1028,4 hPa 0,0 l/m 2 min 0 min 3,4 UV-I 628 W/m 7,7 km/h (2 Bft)
05.07.2013 12:22 21,8 C 26,2 C 74 % 1028,3 hPa 0,0 l/m 2 min 0 min 4,2 UV-I 628 W/m 7,7 km/h (2 Bft)
05.07.2013 12:24 21,7 C 26,8 C 74 % 1028,3 hPa 0,0 l/m 2 min 0 min 4,3 UV-I 868 W/m 12,9 km/h (3 Bft)
05.07.2013 12:26 21,7 C 27,3 C 73 % 1028,3 hPa 0,0 l/m 2 min 0 min 3,8 UV-I 809 W/m 7,7 km/h (2 Bft)
05.07.2013 12:28 21,8 C 26,8 C 73 % 1028,3 hPa 0,0 l/m 2 min 0 min 2,5 UV-I 784 W/m 7,7 km/h (2 Bft)
05.07.2013 12:30 21,6 C 24,6 C 72 % 1028,3 hPa 0,0 l/m 0 min 0 min 2,3 UV-I 362 W/m 10,3 km/h (2 Bft)
05.07.2013 12:32 21,4 C 24,0 C 75 % 1028,2 hPa 0,0 l/m 0 min 0 min 2,4 UV-I 378 W/m 5,1 km/h (1 Bft)
05.07.2013 12:34 21,4 C 24,0 C 75 % 1028,4 hPa 0,0 l/m 0 min 0 min 2,7 UV-I 450 W/m 5,1 km/h (1 Bft)
05.07.2013 12:36 21,5 C 25,1 C 75 % 1028,4 hPa 0,0 l/m 2 min 0 min 3,4 UV-I 504 W/m 0,0 km/h (0 Bft)
05.07.2013 12:38 21,7 C 25,1 C 75 % 1028,4 hPa 0,0 l/m 2 min 0 min 3,0 UV-I 580 W/m 5,1 km/h (1 Bft)
05.07.2013 12:40 21,5 C 25,7 C 75 % 1028,3 hPa 0,0 l/m 2 min 0 min 3,0 UV-I 563 W/m 2,6 km/h (1 Bft)
05.07.2013 12:42 21,6 C 25,1 C 74 % 1028,4 hPa 0,0 l/m 0 min 0 min 2,3 UV-I 290 W/m 0,0 km/h (0 Bft)
05.07.2013 12:44 21,4 C 24,6 C 74 % 1028,4 hPa 0,0 l/m 0 min 0 min 2,9 UV-I 387 W/m 10,3 km/h (2 Bft)
05.07.2013 12:46 21,3 C 25,1 C 75 % 1028,5 hPa 0,0 l/m 2 min 0 min 4,0 UV-I 772 W/m 7,7 km/h (2 Bft)
05.07.2013 12:48 21,5 C 26,8 C 75 % 1028,5 hPa 0,0 l/m 2 min 0 min 4,4 UV-I 858 W/m 0,0 km/h (0 Bft)
05.07.2013 12:50 21,9 C 28,4 C 76 % 1028,4 hPa 0,0 l/m 2 min 0 min 4,6 UV-I 879 W/m 0,0 km/h (0 Bft)
05.07.2013 12:52 22,3 C 29,0 C 74 % 1028,4 hPa 0,0 l/m 2 min 0 min 4,3 UV-I 831 W/m 0,0 km/h (0 Bft)
05.07.2013 12:54 22,4 C 29,6 C 75 % 1028,3 hPa 0,0 l/m 2 min 0 min 4,7 UV-I 907 W/m 5,1 km/h (1 Bft)
05.07.2013 12:56 22,4 C 29,0 C 74 % 1028,4 hPa 0,0 l/m 2 min 0 min 4,6 UV-I 729 W/m 2,6 km/h (1 Bft)
05.07.2013 12:58 22,4 C 29,0 C 74 % 1028,4 hPa 0,0 l/m 2 min 0 min 4,1 UV-I 729 W/m 5,1 km/h (1 Bft)
05.07.2013 13:00 22,4 C 27,9 C 72 % 1028,4 hPa 0,0 l/m 2 min 0 min 4,1 UV-I 823 W/m 10,3 km/h (2 Bft)
05.07.2013 13:02 22,5 C 27,9 C 73 % 1028,4 hPa 0,0 l/m 2 min 0 min 3,8 UV-I 751 W/m 12,9 km/h (3 Bft)
05.07.2013 13:06 22,4 C 28,4 C 71 % 1028,5 hPa 0,0 l/m 2 min 0 min 3,3 UV-I 782 W/m 10,3 km/h (2 Bft)
05.07.2013 13:08 22,4 C 29,0 C 72 % 1028,5 hPa 0,0 l/m 2 min 0 min 3,1 UV-I 735 W/m 5,1 km/h (1 Bft)
05.07.2013 13:10 22,6 C 29,0 C 72 % 1028,5 hPa 0,0 l/m 2 min 0 min 3,0 UV-I 666 W/m 7,7 km/h (2 Bft)
05.07.2013 13:12 22,7 C 29,0 C 71 % 1028,4 hPa 0,0 l/m 2 min 0 min 3,0 UV-I 594 W/m 0,0 km/h (0 Bft)
05.07.2013 13:14 22,8 C 28,4 C 70 % 1028,5 hPa 0,0 l/m 2 min 0 min 3,1 UV-I 671 W/m 7,7 km/h (2 Bft)
05.07.2013 13:16 22,6 C 27,9 C 69 % 1028,4 hPa 0,0 l/m 2 min 0 min 3,2 UV-I 621 W/m 12,9 km/h (3 Bft)
05.07.2013 13:18 22,4 C 27,3 C 71 % 1028,4 hPa 0,0 l/m 2 min 0 min 3,3 UV-I 571 W/m 5,1 km/h (1 Bft)
05.07.2013 13:20 22,6 C 29,0 C 73 % 1028,4 hPa 0,0 l/m 2 min 0 min 3,3 UV-I 868 W/m 2,6 km/h (1 Bft)
05.07.2013 13:22 23,0 C 30,1 C 74 % 1028,5 hPa 0,0 l/m 2 min 0 min 3,3 UV-I 835 W/m 0,0 km/h (0 Bft)
05.07.2013 13:24 23,2 C 31,2 C 72 % 1028,4 hPa 0,0 l/m 2 min 0 min 3,4 UV-I 983 W/m 2,6 km/h (1 Bft)
05.07.2013 13:26 23,4 C 31,2 C 68 % 1028,5 hPa 0,0 l/m 2 min 0 min 3,4 UV-I 972 W/m 7,7 km/h (2 Bft)
05.07.2013 13:28 23,5 C 31,8 C 70 % 1028,4 hPa 0,0 l/m 2 min 0 min 3,4 UV-I 1030 W/m 0,0 km/h (0 Bft)
05.07.2013 13:30 23,4 C 30,1 C 67 % 1028,3 hPa 0,0 l/m 0 min 0 min 3,3 UV-I 429 W/m 2,6 km/h (1 Bft)
05.07.2013 13:32 23,1 C 29,0 C 69 % 1028,4 hPa 0,0 l/m 0 min 0 min 3,3 UV-I 429 W/m 0,0 km/h (0 Bft)
05.07.2013 13:34 23,1 C 29,6 C 71 % 1028,4 hPa 0,0 l/m 2 min 0 min 3,3 UV-I 935 W/m 7,7 km/h (2 Bft)
05.07.2013 13:36 23,0 C 29,6 C 69 % 1028,4 hPa 0,0 l/m 2 min 0 min 3,2 UV-I 951 W/m 7,7 km/h (2 Bft)
05.07.2013 13:38 23,3 C 29,6 C 69 % 1028,4 hPa 0,0 l/m 2 min 0 min 3,2 UV-I 990 W/m 5,1 km/h (1 Bft)
05.07.2013 13:40 23,4 C 28,4 C 69 % 1028,4 hPa 0,0 l/m 0 min 0 min 3,0 UV-I 471 W/m 5,1 km/h (1 Bft)
05.07.2013 13:42 23,3 C 27,9 C 70 % 1028,4 hPa 0,0 l/m 2 min 0 min 2,4 UV-I 536 W/m 5,1 km/h (1 Bft)
05.07.2013 13:44 23,2 C 27,3 C 70 % 1028,4 hPa 0,0 l/m 0 min 0 min 2,2 UV-I 387 W/m 2,6 km/h (1 Bft)
05.07.2013 13:46 23,1 C 26,2 C 70 % 1028,4 hPa 0,0 l/m 0 min 0 min 2,1 UV-I 271 W/m 0,0 km/h (0 Bft)
05.07.2013 13:48 22,7 C 25,1 C 70 % 1028,4 hPa 0,0 l/m 0 min 0 min 2,0 UV-I 279 W/m 2,6 km/h (1 Bft)
05.07.2013 13:50 22,5 C 24,6 C 71 % 1028,5 hPa 0,0 l/m 0 min 0 min 2,1 UV-I 302 W/m 0,0 km/h (0 Bft)
05.07.2013 13:52 22,4 C 24,6 C 72 % 1028,5 hPa 0,0 l/m 0 min 0 min 2,3 UV-I 366 W/m 0,0 km/h (0 Bft)
05.07.2013 13:54 22,4 C 24,6 C 71 % 1028,4 hPa 0,0 l/m 2 min 0 min 2,9 UV-I 645 W/m 10,3 km/h (2 Bft)
05.07.2013 13:56 22,4 C 24,0 C 71 % 1028,4 hPa 0,0 l/m 0 min 0 min 2,8 UV-I 457 W/m 2,6 km/h (1 Bft)
05.07.2013 13:58 22,7 C 25,1 C 73 % 1028,4 hPa 0,0 l/m 2 min 0 min 3,7 UV-I 636 W/m 0,0 km/h (0 Bft)
05.07.2013 14:00 22,8 C 25,1 C 70 % 1028,4 hPa 0,0 l/m 2 min 0 min 3,5 UV-I 636 W/m 10,3 km/h (2 Bft)
05.07.2013 14:02 22,8 C 25,1 C 68 % 1028,4 hPa 0,0 l/m 2 min 0 min 2,3 UV-I 601 W/m 0,0 km/h (0 Bft)
05.07.2013 14:06 22,4 C 24,0 C 70 % 1028,5 hPa 0,0 l/m 0 min 0 min 2,3 UV-I 374 W/m 12,9 km/h (3 Bft)
05.07.2013 14:08 22,4 C 24,6 C 72 % 1028,4 hPa 0,0 l/m 0 min 0 min 4,1 UV-I 374 W/m 2,6 km/h (1 Bft)
05.07.2013 14:10 22,5 C 24,0 C 70 % 1028,4 hPa 0,0 l/m 0 min 0 min 2,2 UV-I 404 W/m 12,9 km/h (3 Bft)
05.07.2013 14:12 22,6 C 24,0 C 71 % 1028,4 hPa 0,0 l/m 0 min 0 min 2,2 UV-I 325 W/m 2,6 km/h (1 Bft)
05.07.2013 14:14 22,5 C 24,0 C 72 % 1028,4 hPa 0,0 l/m 0 min 0 min 2,3 UV-I 323 W/m 0,0 km/h (0 Bft)
05.07.2013 14:16 22,4 C 24,0 C 72 % 1028,5 hPa 0,0 l/m 0 min 0 min 4,7 UV-I 367 W/m 2,6 km/h (1 Bft)
05.07.2013 14:18 22,6 C 24,0 C 71 % 1028,4 hPa 0,0 l/m 2 min 0 min 4,3 UV-I 912 W/m 10,3 km/h (2 Bft)
05.07.2013 14:20 22,8 C 24,6 C 73 % 1028,4 hPa 0,0 l/m 2 min 0 min 4,7 UV-I 877 W/m 7,7 km/h (2 Bft)
05.07.2013 14:22 23,1 C 25,1 C 71 % 1028,5 hPa 0,0 l/m 2 min 0 min 3,9 UV-I 877 W/m 7,7 km/h (2 Bft)
05.07.2013 14:24 23,0 C 24,6 C 69 % 1028,5 hPa 0,0 l/m 2 min 0 min 4,4 UV-I 817 W/m 10,3 km/h (2 Bft)
05.07.2013 14:26 23,1 C 25,1 C 71 % 1028,4 hPa 0,0 l/m 2 min 0 min 4,7 UV-I 729 W/m 7,7 km/h (2 Bft)
05.07.2013 14:28 23,0 C 24,6 C 69 % 1028,5 hPa 0,0 l/m 2 min 0 min 4,4 UV-I 909 W/m 12,9 km/h (3 Bft)
05.07.2013 14:30 22,9 C 25,1 C 72 % 1028,4 hPa 0,0 l/m 2 min 0 min 3,6 UV-I 909 W/m 12,9 km/h (3 Bft)
05.07.2013 14:32 23,2 C 25,1 C 72 % 1028,4 hPa 0,0 l/m 2 min 0 min 4,7 UV-I 963 W/m 10,3 km/h (2 Bft)
05.07.2013 14:34 23,2 C 25,1 C 69 % 1028,5 hPa 0,0 l/m 2 min 0 min 4,0 UV-I 895 W/m 10,3 km/h (2 Bft)
05.07.2013 14:36 23,2 C 25,7 C 70 % 1028,4 hPa 0,0 l/m 2 min 0 min 3,2 UV-I 895 W/m 0,0 km/h (0 Bft)
05.07.2013 14:38 23,1 C 25,7 C 71 % 1028,4 hPa 0,0 l/m 0 min 0 min 4,6 UV-I 438 W/m 2,6 km/h (1 Bft)
05.07.2013 14:40 23,2 C 25,7 C 73 % 1028,5 hPa 0,0 l/m 0 min 0 min 3,3 UV-I 457 W/m 2,6 km/h (1 Bft)
05.07.2013 14:42 23,4 C 25,1 C 70 % 1028,5 hPa 0,0 l/m 0 min 0 min 3,4 UV-I 455 W/m 12,9 km/h (3 Bft)
05.07.2013 14:44 23,3 C 25,1 C 70 % 1028,5 hPa 0,0 l/m 0 min 0 min 3,3 UV-I 406 W/m 10,3 km/h (2 Bft)
05.07.2013 14:46 23,1 C 24,6 C 69 % 1028,4 hPa 0,0 l/m 2 min 0 min 4,9 UV-I 919 W/m 12,9 km/h (3 Bft)
05.07.2013 14:48 23,2 C 25,1 C 70 % 1028,4 hPa 0,0 l/m 2 min 0 min 4,9 UV-I 909 W/m 2,6 km/h (1 Bft)
05.07.2013 14:50 23,4 C 25,1 C 71 % 1028,4 hPa 0,0 l/m 2 min 0 min 4,9 UV-I 914 W/m 10,3 km/h (2 Bft)
05.07.2013 14:52 23,6 C 25,7 C 71 % 1028,4 hPa 0,0 l/m 2 min 0 min 4,8 UV-I 907 W/m 10,3 km/h (2 Bft)
05.07.2013 14:54 23,6 C 25,7 C 69 % 1028,4 hPa 0,0 l/m 2 min 0 min 4,7 UV-I 881 W/m 10,3 km/h (2 Bft)
05.07.2013 14:56 23,7 C 25,1 C 70 % 1028,4 hPa 0,0 l/m 2 min 0 min 4,6 UV-I 874 W/m 12,9 km/h (3 Bft)
05.07.2013 14:58 23,9 C 25,7 C 69 % 1028,5 hPa 0,0 l/m 2 min 0 min 3,9 UV-I 853 W/m 12,9 km/h (3 Bft)
05.07.2013 15:00 23,7 C 25,1 C 69 % 1028,5 hPa 0,0 l/m 2 min 0 min 4,7 UV-I 898 W/m 7,7 km/h (2 Bft)
05.07.2013 15:02 23,8 C 25,7 C 70 % 1028,5 hPa 0,0 l/m 2 min 0 min 4,6 UV-I 896 W/m 12,9 km/h (3 Bft)
05.07.2013 15:06 24,1 C 26,2 C 70 % 1028,5 hPa 0,0 l/m 2 min 0 min 4,4 UV-I 868 W/m 10,3 km/h (2 Bft)
05.07.2013 15:08 24,1 C 26,2 C 69 % 1028,5 hPa 0,0 l/m 2 min 0 min 4,2 UV-I 874 W/m 0,0 km/h (0 Bft)
05.07.2013 15:10 23,8 C 25,7 C 68 % 1028,6 hPa 0,0 l/m 2 min 0 min 4,0 UV-I 874 W/m 15,4 km/h (3 Bft)
05.07.2013 15:12 23,7 C 25,1 C 70 % 1028,5 hPa 0,0 l/m 2 min 0 min 2,3 UV-I 874 W/m 12,9 km/h (3 Bft)
05.07.2013 15:14 23,5 C 25,1 C 70 % 1028,5 hPa 0,0 l/m 0 min 0 min 2,2 UV-I 320 W/m 10,3 km/h (2 Bft)
05.07.2013 15:16 23,1 C 24,6 C 67 % 1028,5 hPa 0,0 l/m 0 min 0 min 2,1 UV-I 325 W/m 7,7 km/h (2 Bft)
05.07.2013 15:18 22,9 C 24,6 C 71 % 1028,6 hPa 0,0 l/m 0 min 0 min 3,6 UV-I 334 W/m 10,3 km/h (2 Bft)
05.07.2013 15:20 22,8 C 24,6 C 71 % 1028,5 hPa 0,0 l/m 0 min 0 min 2,4 UV-I 425 W/m 15,4 km/h (3 Bft)
05.07.2013 15:22 22,9 C 24,6 C 71 % 1028,5 hPa 0,0 l/m 0 min 0 min 1,4 UV-I 297 W/m 12,9 km/h (3 Bft)
05.07.2013 15:24 22,9 C 24,0 C 73 % 1028,6 hPa 0,0 l/m 0 min 0 min 1,0 UV-I 199 W/m 12,9 km/h (3 Bft)
05.07.2013 15:26 22,9 C 23,4 C 73 % 1028,6 hPa 0,0 l/m 0 min 0 min 0,9 UV-I 183 W/m 12,9 km/h (3 Bft)
05.07.2013 15:28 22,7 C 23,4 C 73 % 1028,5 hPa 0,0 l/m 0 min 0 min 1,0 UV-I 186 W/m 2,6 km/h (1 Bft)
05.07.2013 15:30 22,6 C 22,9 C 74 % 1028,6 hPa 0,0 l/m 0 min 0 min 1,1 UV-I 192 W/m 20,6 km/h (4 Bft)
05.07.2013 15:32 22,3 C 22,3 C 74 % 1028,6 hPa 0,0 l/m 0 min 0 min 1,3 UV-I 214 W/m 10,3 km/h (2 Bft)
05.07.2013 15:34 22,2 C 22,3 C 75 % 1028,7 hPa 0,0 l/m 0 min 0 min 1,4 UV-I 225 W/m 7,7 km/h (2 Bft)
05.07.2013 15:36 22,1 C 22,9 C 76 % 1028,6 hPa 0,0 l/m 0 min 0 min 1,6 UV-I 250 W/m 7,7 km/h (2 Bft)
05.07.2013 15:38 22,1 C 22,9 C 76 % 1028,6 hPa 0,0 l/m 0 min 0 min 1,8 UV-I 269 W/m 10,3 km/h (2 Bft)
05.07.2013 15:40 21,9 C 22,9 C 76 % 1028,5 hPa 0,0 l/m 0 min 0 min 2,2 UV-I 346 W/m 15,4 km/h (3 Bft)
05.07.2013 15:42 22,1 C 23,4 C 76 % 1028,5 hPa 0,0 l/m 0 min 0 min 3,2 UV-I 346 W/m 12,9 km/h (3 Bft)
05.07.2013 15:44 22,3 C 23,4 C 75 % 1028,5 hPa 0,0 l/m 2 min 0 min 3,2 UV-I 548 W/m 12,9 km/h (3 Bft)
05.07.2013 15:46 22,5 C 24,0 C 73 % 1028,5 hPa 0,0 l/m 2 min 0 min 3,2 UV-I 749 W/m 7,7 km/h (2 Bft)
05.07.2013 15:48 22,6 C 24,0 C 72 % 1028,5 hPa 0,0 l/m 2 min 0 min 2,0 UV-I 773 W/m 10,3 km/h (2 Bft)
05.07.2013 15:50 22,7 C 24,0 C 74 % 1028,4 hPa 0,0 l/m 0 min 0 min 1,8 UV-I 267 W/m 2,6 km/h (1 Bft)
05.07.2013 15:52 22,7 C 24,0 C 74 % 1028,4 hPa 0,0 l/m 0 min 0 min 1,7 UV-I 251 W/m 2,6 km/h (1 Bft)
05.07.2013 15:54 22,8 C 24,0 C 75 % 1028,5 hPa 0,0 l/m 0 min 0 min 1,7 UV-I 258 W/m 2,6 km/h (1 Bft)
05.07.2013 15:56 22,7 C 23,4 C 74 % 1028,5 hPa 0,0 l/m 0 min 0 min 1,7 UV-I 267 W/m 10,3 km/h (2 Bft)
05.07.2013 15:58 22,6 C 23,4 C 75 % 1028,5 hPa 0,0 l/m 0 min 0 min 1,7 UV-I 283 W/m 7,7 km/h (2 Bft)
05.07.2013 16:00 22,6 C 23,4 C 75 % 1028,5 hPa 0,0 l/m 0 min 0 min 1,8 UV-I 315 W/m 7,7 km/h (2 Bft)
05.07.2013 16:02 22,6 C 24,0 C 75 % 1028,5 hPa 0,0 l/m 2 min 0 min 1,7 UV-I 765 W/m 12,9 km/h (3 Bft)
05.07.2013 16:06 22,4 C 23,4 C 75 % 1028,4 hPa 0,0 l/m 0 min 0 min 1,8 UV-I 318 W/m 18,0 km/h (3 Bft)
05.07.2013 16:08 22,3 C 23,4 C 75 % 1028,5 hPa 0,0 l/m 0 min 0 min 2,9 UV-I 318 W/m 18,0 km/h (3 Bft)
05.07.2013 16:10 22,5 C 24,6 C 76 % 1028,4 hPa 0,0 l/m 2 min 0 min 3,1 UV-I 835 W/m 10,3 km/h (2 Bft)
05.07.2013 16:12 22,8 C 25,1 C 75 % 1028,5 hPa 0,0 l/m 2 min 0 min 3,0 UV-I 805 W/m 18,0 km/h (3 Bft)
05.07.2013 16:14 22,8 C 25,1 C 73 % 1028,5 hPa 0,0 l/m 2 min 0 min 3,0 UV-I 800 W/m 10,3 km/h (2 Bft)
05.07.2013 16:16 23,2 C 26,2 C 75 % 1028,4 hPa 0,0 l/m 2 min 0 min 2,7 UV-I 812 W/m 12,9 km/h (3 Bft)
05.07.2013 16:18 23,4 C 26,2 C 73 % 1028,5 hPa 0,0 l/m 2 min 0 min 3,1 UV-I 810 W/m 12,9 km/h (3 Bft)
05.07.2013 16:20 23,4 C 26,2 C 71 % 1028,5 hPa 0,0 l/m 2 min 0 min 2,9 UV-I 754 W/m 12,9 km/h (3 Bft)
05.07.2013 16:22 23,5 C 26,2 C 72 % 1028,5 hPa 0,0 l/m 2 min 0 min 2,3 UV-I 710 W/m 12,9 km/h (3 Bft)
05.07.2013 16:24 23,4 C 25,7 C 72 % 1028,4 hPa 0,0 l/m 2 min 0 min 2,9 UV-I 791 W/m 18,0 km/h (3 Bft)
05.07.2013 16:26 23,4 C 26,2 C 72 % 1028,5 hPa 0,0 l/m 2 min 0 min 2,6 UV-I 714 W/m 15,4 km/h (3 Bft)
05.07.2013 16:28 23,6 C 26,8 C 73 % 1028,5 hPa 0,0 l/m 2 min 0 min 2,6 UV-I 766 W/m 18,0 km/h (3 Bft)
05.07.2013 16:30 23,8 C 27,9 C 72 % 1028,5 hPa 0,0 l/m 2 min 0 min 2,6 UV-I 800 W/m 15,4 km/h (3 Bft)
05.07.2013 16:32 23,8 C 28,4 C 71 % 1028,5 hPa 0,0 l/m 2 min 0 min 2,6 UV-I 765 W/m 15,4 km/h (3 Bft)
05.07.2013 16:34 23,8 C 27,9 C 72 % 1028,5 hPa 0,0 l/m 2 min 0 min 2,5 UV-I 663 W/m 12,9 km/h (3 Bft)
05.07.2013 16:36 23,8 C 27,9 C 71 % 1028,5 hPa 0,0 l/m 2 min 0 min 2,6 UV-I 724 W/m 15,4 km/h (3 Bft)
05.07.2013 16:38 23,8 C 27,3 C 71 % 1028,4 hPa 0,0 l/m 2 min 0 min 2,5 UV-I 689 W/m 15,4 km/h (3 Bft)
05.07.2013 16:40 23,7 C 27,3 C 73 % 1028,5 hPa 0,0 l/m 2 min 0 min 2,6 UV-I 707 W/m 15,4 km/h (3 Bft)
05.07.2013 16:42 23,9 C 27,3 C 73 % 1028,5 hPa 0,0 l/m 2 min 0 min 2,5 UV-I 700 W/m 10,3 km/h (2 Bft)
05.07.2013 16:44 23,8 C 27,3 C 71 % 1028,6 hPa 0,0 l/m 2 min 0 min 2,7 UV-I 721 W/m 18,0 km/h (3 Bft)
05.07.2013 16:46 23,4 C 26,2 C 72 % 1028,5 hPa 0,0 l/m 2 min 0 min 2,6 UV-I 693 W/m 20,6 km/h (4 Bft)
05.07.2013 16:48 23,1 C 25,1 C 73 % 1028,5 hPa 0,0 l/m 2 min 0 min 2,7 UV-I 691 W/m 15,4 km/h (3 Bft)
05.07.2013 16:50 23,1 C 25,1 C 74 % 1028,4 hPa 0,0 l/m 2 min 0 min 2,6 UV-I 668 W/m 30,9 km/h (5 Bft)
05.07.2013 16:52 23,0 C 24,6 C 73 % 1028,5 hPa 0,0 l/m 2 min 0 min 2,4 UV-I 626 W/m 23,2 km/h (4 Bft)
05.07.2013 16:54 22,8 C 24,0 C 74 % 1028,5 hPa 0,0 l/m 2 min 0 min 2,4 UV-I 603 W/m 18,0 km/h (3 Bft)
05.07.2013 16:56 22,7 C 24,0 C 73 % 1028,5 hPa 0,0 l/m 2 min 0 min 2,3 UV-I 566 W/m 25,7 km/h (4 Bft)
05.07.2013 16:58 22,6 C 24,0 C 75 % 1028,5 hPa 0,0 l/m 2 min 0 min 2,4 UV-I 652 W/m 12,9 km/h (3 Bft)
05.07.2013 17:00 22,6 C 24,0 C 74 % 1028,5 hPa 0,0 l/m 2 min 0 min 2,1 UV-I 578 W/m 20,6 km/h (4 Bft)
05.07.2013 17:02 22,6 C 24,0 C 75 % 1028,5 hPa 0,0 l/m 2 min 0 min 1,9 UV-I 506 W/m 20,6 km/h (4 Bft)
05.07.2013 17:06 22,2 C 22,9 C 74 % 1028,5 hPa 0,0 l/m 0 min 0 min 1,4 UV-I 276 W/m 18,0 km/h (3 Bft)
05.07.2013 17:08 22,1 C 22,3 C 74 % 1028,5 hPa 0,0 l/m 0 min 0 min 1,5 UV-I 327 W/m 12,9 km/h (3 Bft)
05.07.2013 17:10 21,9 C 22,3 C 74 % 1028,5 hPa 0,0 l/m 2 min 0 min 1,9 UV-I 376 W/m 12,9 km/h (3 Bft)
05.07.2013 17:12 21,9 C 22,9 C 75 % 1028,5 hPa 0,0 l/m 2 min 0 min 1,7 UV-I 410 W/m 18,0 km/h (3 Bft)
05.07.2013 17:14 21,9 C 22,9 C 75 % 1028,4 hPa 0,0 l/m 2 min 0 min 1,9 UV-I 503 W/m 18,0 km/h (3 Bft)
05.07.2013 17:16 22,1 C 22,9 C 75 % 1028,4 hPa 0,0 l/m 2 min 0 min 2,0 UV-I 578 W/m 15,4 km/h (3 Bft)
05.07.2013 17:18 22,2 C 22,9 C 74 % 1028,4 hPa 0,0 l/m 2 min 0 min 1,9 UV-I 566 W/m 15,4 km/h (3 Bft)
05.07.2013 17:20 22,3 C 22,9 C 75 % 1028,4 hPa 0,0 l/m 2 min 0 min 1,9 UV-I 554 W/m 12,9 km/h (3 Bft)
05.07.2013 17:22 22,4 C 23,4 C 74 % 1028,5 hPa 0,0 l/m 2 min 0 min 1,9 UV-I 513 W/m 15,4 km/h (3 Bft)
05.07.2013 17:24 22,6 C 23,4 C 74 % 1028,4 hPa 0,0 l/m 2 min 0 min 1,8 UV-I 548 W/m 10,3 km/h (2 Bft)
05.07.2013 17:26 22,6 C 23,4 C 74 % 1028,5 hPa 0,0 l/m 2 min 0 min 1,6 UV-I 545 W/m 15,4 km/h (3 Bft)
05.07.2013 17:28 22,6 C 22,9 C 74 % 1028,4 hPa 0,0 l/m 0 min 0 min 1,2 UV-I 218 W/m 12,9 km/h (3 Bft)
05.07.2013 17:30 22,4 C 22,9 C 75 % 1028,4 hPa 0,0 l/m 2 min 0 min 1,6 UV-I 508 W/m 10,3 km/h (2 Bft)
05.07.2013 17:32 22,6 C 23,4 C 75 % 1028,4 hPa 0,0 l/m 2 min 0 min 1,4 UV-I 466 W/m 7,7 km/h (2 Bft)
05.07.2013 17:34 22,6 C 22,9 C 74 % 1028,5 hPa 0,0 l/m 2 min 0 min 1,4 UV-I 374 W/m 15,4 km/h (3 Bft)
05.07.2013 17:36 22,4 C 22,3 C 73 % 1028,5 hPa 0,0 l/m 0 min 0 min 1,0 UV-I 197 W/m 20,6 km/h (4 Bft)
05.07.2013 17:38 22,3 C 22,3 C 74 % 1028,5 hPa 0,0 l/m 0 min 0 min 1,3 UV-I 197 W/m 12,9 km/h (3 Bft)
05.07.2013 17:40 22,1 C 22,3 C 74 % 1028,5 hPa 0,0 l/m 0 min 0 min 0,9 UV-I 156 W/m 18,0 km/h (3 Bft)
05.07.2013 17:42 21,9 C 21,8 C 75 % 1028,5 hPa 0,0 l/m 0 min 0 min 0,8 UV-I 148 W/m 18,0 km/h (3 Bft)
05.07.2013 17:44 21,8 C 21,8 C 76 % 1028,5 hPa 0,0 l/m 0 min 0 min 0,8 UV-I 151 W/m 18,0 km/h (3 Bft)
05.07.2013 17:46 21,7 C 21,8 C 76 % 1028,6 hPa 0,0 l/m 0 min 0 min 0,8 UV-I 167 W/m 12,9 km/h (3 Bft)
05.07.2013 17:48 21,7 C 21,8 C 77 % 1028,5 hPa 0,0 l/m 0 min 0 min 1,0 UV-I 167 W/m 10,3 km/h (2 Bft)
05.07.2013 17:50 21,8 C 21,8 C 77 % 1028,6 hPa 0,0 l/m 2 min 0 min 1,2 UV-I 454 W/m 20,6 km/h (4 Bft)
05.07.2013 17:52 21,8 C 22,3 C 77 % 1028,5 hPa 0,0 l/m 0 min 0 min 0,9 UV-I 216 W/m 10,3 km/h (2 Bft)
05.07.2013 17:54 21,8 C 22,3 C 77 % 1028,5 hPa 0,0 l/m 0 min 0 min 0,8 UV-I 186 W/m 10,3 km/h (2 Bft)
05.07.2013 17:56 21,8 C 21,8 C 77 % 1028,4 hPa 0,0 l/m 0 min 0 min 0,8 UV-I 179 W/m 12,9 km/h (3 Bft)
05.07.2013 17:58 21,8 C 22,3 C 78 % 1028,5 hPa 0,0 l/m 2 min 0 min 1,0 UV-I 438 W/m 12,9 km/h (3 Bft)
05.07.2013 18:00 21,9 C 22,3 C 77 % 1028,4 hPa 0,0 l/m 2 min 0 min 1,0 UV-I 422 W/m 10,3 km/h (2 Bft)
05.07.2013 18:02 21,9 C 22,3 C 78 % 1028,4 hPa 0,0 l/m 2 min 0 min 1,0 UV-I 410 W/m 10,3 km/h (2 Bft)
05.07.2013 18:06 22,0 C 22,3 C 77 % 1028,4 hPa 0,0 l/m 2 min 0 min 1,0 UV-I 396 W/m 15,4 km/h (3 Bft)
05.07.2013 18:08 22,1 C 22,3 C 77 % 1028,4 hPa 0,0 l/m 2 min 0 min 0,9 UV-I 390 W/m 15,4 km/h (3 Bft)
05.07.2013 18:10 22,1 C 22,3 C 77 % 1028,4 hPa 0,0 l/m 2 min 0 min 0,8 UV-I 399 W/m 15,4 km/h (3 Bft)
05.07.2013 18:12 22,0 C 22,3 C 76 % 1028,4 hPa 0,0 l/m 2 min 0 min 0,7 UV-I 304 W/m 12,9 km/h (3 Bft)
05.07.2013 18:14 22,1 C 22,3 C 77 % 1028,4 hPa 0,0 l/m 2 min 0 min 0,7 UV-I 360 W/m 15,4 km/h (3 Bft)
05.07.2013 18:16 22,1 C 22,3 C 76 % 1028,4 hPa 0,0 l/m 2 min 0 min 0,7 UV-I 279 W/m 15,4 km/h (3 Bft)
05.07.2013 18:18 22,3 C 22,3 C 76 % 1028,4 hPa 0,0 l/m 2 min 0 min 0,7 UV-I 278 W/m 2,6 km/h (1 Bft)
05.07.2013 18:20 22,3 C 22,3 C 76 % 1028,4 hPa 0,0 l/m 0 min 0 min 0,7 UV-I 214 W/m 18,0 km/h (3 Bft)
05.07.2013 18:22 22,2 C 22,3 C 75 % 1028,4 hPa 0,0 l/m 0 min 0 min 0,7 UV-I 253 W/m 15,4 km/h (3 Bft)
05.07.2013 18:24 22,1 C 21,8 C 75 % 1028,4 hPa 0,0 l/m 2 min 0 min 0,7 UV-I 329 W/m 15,4 km/h (3 Bft)
05.07.2013 18:26 21,9 C 21,8 C 75 % 1028,4 hPa 0,0 l/m 2 min 0 min 0,7 UV-I 262 W/m 20,6 km/h (4 Bft)
05.07.2013 18:28 21,9 C 21,8 C 75 % 1028,4 hPa 0,0 l/m 2 min 0 min 0,6 UV-I 330 W/m 12,9 km/h (3 Bft)
05.07.2013 18:30 21,8 C 21,8 C 76 % 1028,5 hPa 0,0 l/m 2 min 0 min 0,6 UV-I 348 W/m 10,3 km/h (2 Bft)
05.07.2013 18:32 21,8 C 21,8 C 76 % 1028,6 hPa 0,0 l/m 2 min 0 min 0,6 UV-I 348 W/m 18,0 km/h (3 Bft)
05.07.2013 18:34 21,8 C 21,8 C 77 % 1028,5 hPa 0,0 l/m 2 min 0 min 0,5 UV-I 339 W/m 10,3 km/h (2 Bft)
05.07.2013 18:36 21,9 C 21,8 C 76 % 1028,5 hPa 0,0 l/m 2 min 0 min 0,0 UV-I 306 W/m 15,4 km/h (3 Bft)
05.07.2013 18:38 21,8 C 21,2 C 76 % 1028,5 hPa 0,0 l/m 0 min 0 min 0,0 UV-I 153 W/m 12,9 km/h (3 Bft)
05.07.2013 18:40 21,8 C 21,2 C 75 % 1028,5 hPa 0,0 l/m 0 min 0 min 0,0 UV-I 169 W/m 7,7 km/h (2 Bft)
05.07.2013 18:42 21,8 C 21,8 C 76 % 1028,6 hPa 0,0 l/m 0 min 0 min 0,0 UV-I 185 W/m 12,9 km/h (3 Bft)
05.07.2013 18:44 21,9 C 21,8 C 76 % 1028,6 hPa 0,0 l/m 0 min 0 min 0,0 UV-I 209 W/m 7,7 km/h (2 Bft)
05.07.2013 18:46 21,9 C 21,8 C 76 % 1028,6 hPa 0,0 l/m 0 min 0 min 0,0 UV-I 200 W/m 12,9 km/h (3 Bft)
05.07.2013 18:48 21,9 C 21,8 C 76 % 1028,6 hPa 0,0 l/m 0 min 0 min 0,0 UV-I 188 W/m 10,3 km/h (2 Bft)
05.07.2013 18:50 21,8 C 21,8 C 75 % 1028,6 hPa 0,0 l/m 0 min 0 min 0,0 UV-I 160 W/m 7,7 km/h (2 Bft)
05.07.2013 18:52 21,8 C 21,2 C 75 % 1028,6 hPa 0,0 l/m 0 min 0 min 0,0 UV-I 146 W/m 10,3 km/h (2 Bft)
05.07.2013 18:54 21,7 C 21,2 C 76 % 1028,6 hPa 0,0 l/m 0 min 0 min 0,0 UV-I 139 W/m 7,7 km/h (2 Bft)
05.07.2013 18:56 21,8 C 21,2 C 76 % 1028,5 hPa 0,0 l/m 0 min 0 min 0,0 UV-I 134 W/m 15,4 km/h (3 Bft)
05.07.2013 18:58 21,8 C 21,8 C 76 % 1028,6 hPa 0,0 l/m 0 min 0 min 0,0 UV-I 134 W/m 5,1 km/h (1 Bft)
05.07.2013 19:00 21,8 C 21,8 C 77 % 1028,5 hPa 0,0 l/m 0 min 0 min 0,0 UV-I 153 W/m 0,0 km/h (0 Bft)
05.07.2013 19:02 21,9 C 21,8 C 76 % 1028,6 hPa 0,0 l/m 0 min 0 min 0,0 UV-I 183 W/m 12,9 km/h (3 Bft)
05.07.2013 19:06 21,9 C 21,8 C 77 % 1028,6 hPa 0,0 l/m 0 min 0 min 0,0 UV-I 195 W/m 18,0 km/h (3 Bft)
05.07.2013 19:08 21,9 C 21,8 C 77 % 1028,5 hPa 0,0 l/m 0 min 0 min 0,0 UV-I 151 W/m 7,7 km/h (2 Bft)
05.07.2013 19:10 21,9 C 21,8 C 76 % 1028,6 hPa 0,0 l/m 0 min 0 min 0,0 UV-I 135 W/m 12,9 km/h (3 Bft)
05.07.2013 19:12 21,9 C 21,8 C 77 % 1028,5 hPa 0,0 l/m 0 min 0 min 0,0 UV-I 130 W/m 2,6 km/h (1 Bft)
05.07.2013 19:14 22,0 C 21,8 C 77 % 1028,6 hPa 0,0 l/m 0 min 0 min 0,0 UV-I 121 W/m 12,9 km/h (3 Bft)
05.07.2013 19:16 21,9 C 21,8 C 76 % 1028,5 hPa 0,0 l/m 0 min 0 min 0,0 UV-I 111 W/m 15,4 km/h (3 Bft)
05.07.2013 19:18 21,9 C 21,2 C 76 % 1028,5 hPa 0,0 l/m 0 min 0 min 0,0 UV-I 105 W/m 15,4 km/h (3 Bft)
05.07.2013 19:20 21,8 C 21,2 C 76 % 1028,6 hPa 0,0 l/m 0 min 0 min 0,0 UV-I 104 W/m 10,3 km/h (2 Bft)
05.07.2013 19:22 21,8 C 21,2 C 77 % 1028,5 hPa 0,0 l/m 0 min 0 min 0,0 UV-I 104 W/m 10,3 km/h (2 Bft)
05.07.2013 19:24 21,8 C 21,2 C 76 % 1028,5 hPa 0,0 l/m 0 min 0 min 0,0 UV-I 104 W/m 7,7 km/h (2 Bft)
05.07.2013 19:26 21,7 C 21,2 C 77 % 1028,5 hPa 0,0 l/m 0 min 0 min 0,0 UV-I 97 W/m 5,1 km/h (1 Bft)
05.07.2013 19:28 21,7 C 21,2 C 77 % 1028,5 hPa 0,0 l/m 0 min 0 min 0,0 UV-I 93 W/m 10,3 km/h (2 Bft)
05.07.2013 19:30 21,7 C 21,2 C 77 % 1028,6 hPa 0,0 l/m 0 min 0 min 0,0 UV-I 95 W/m 10,3 km/h (2 Bft)
05.07.2013 19:32 21,7 C 21,2 C 77 % 1028,5 hPa 0,0 l/m 0 min 0 min 0,0 UV-I 91 W/m 10,3 km/h (2 Bft)
05.07.2013 19:34 21,7 C 21,2 C 77 % 1028,5 hPa 0,0 l/m 0 min 0 min 0,0 UV-I 90 W/m 2,6 km/h (1 Bft)
05.07.2013 19:36 21,7 C 21,2 C 77 % 1028,5 hPa 0,0 l/m 0 min 0 min 0,0 UV-I 88 W/m 12,9 km/h (3 Bft)
05.07.2013 19:38 21,6 C 21,2 C 76 % 1028,5 hPa 0,0 l/m 0 min 0 min 0,0 UV-I 84 W/m 12,9 km/h (3 Bft)
05.07.2013 19:40 21,6 C 21,2 C 77 % 1028,5 hPa 0,0 l/m 0 min 0 min 0,0 UV-I 83 W/m 10,3 km/h (2 Bft)
05.07.2013 19:42 21,6 C 21,2 C 76 % 1028,5 hPa 0,0 l/m 0 min 0 min 0,0 UV-I 81 W/m 7,7 km/h (2 Bft)
05.07.2013 19:44 21,6 C 21,2 C 77 % 1028,5 hPa 0,0 l/m 0 min 0 min 0,0 UV-I 79 W/m 5,1 km/h (1 Bft)
05.07.2013 19:46 21,6 C 21,2 C 76 % 1028,6 hPa 0,0 l/m 0 min 0 min 0,0 UV-I 79 W/m 15,4 km/h (3 Bft)
05.07.2013 19:48 21,6 C 20,7 C 77 % 1028,6 hPa 0,0 l/m 0 min 0 min 0,0 UV-I 77 W/m 10,3 km/h (2 Bft)
05.07.2013 19:50 21,6 C 20,7 C 77 % 1028,5 hPa 0,0 l/m 0 min 0 min 0,0 UV-I 76 W/m 7,7 km/h (2 Bft)
05.07.2013 19:52 21,6 C 20,7 C 77 % 1028,5 hPa 0,0 l/m 0 min 0 min 0,0 UV-I 76 W/m 7,7 km/h (2 Bft)
05.07.2013 19:54 21,5 C 20,7 C 77 % 1028,6 hPa 0,0 l/m 0 min 0 min 0,0 UV-I 74 W/m 15,4 km/h (3 Bft)
05.07.2013 19:56 21,5 C 20,7 C 77 % 1028,5 hPa 0,0 l/m 0 min 0 min 0,0 UV-I 74 W/m 7,7 km/h (2 Bft)
05.07.2013 19:58 21,5 C 20,7 C 78 % 1028,6 hPa 0,0 l/m 0 min 0 min 0,0 UV-I 72 W/m 2,6 km/h (1 Bft)
05.07.2013 20:00 21,5 C 20,7 C 78 % 1028,6 hPa 0,0 l/m 0 min 0 min 0,0 UV-I 72 W/m 7,7 km/h (2 Bft)
05.07.2013 20:02 21,5 C 20,7 C 78 % 1028,6 hPa 0,0 l/m 0 min 0 min 0,0 UV-I 70 W/m 2,6 km/h (1 Bft)
05.07.2013 20:06 21,4 C 20,7 C 78 % 1028,6 hPa 0,0 l/m 0 min 0 min 0,0 UV-I 69 W/m 7,7 km/h (2 Bft)
05.07.2013 20:08 21,4 C 20,7 C 78 % 1028,5 hPa 0,0 l/m 0 min 0 min 0,0 UV-I 67 W/m 7,7 km/h (2 Bft)
05.07.2013 20:10 21,4 C 20,7 C 78 % 1028,6 hPa 0,0 l/m 0 min 0 min 0,0 UV-I 65 W/m 10,3 km/h (2 Bft)
05.07.2013 20:12 21,3 C 20,7 C 79 % 1028,7 hPa 0,0 l/m 0 min 0 min 0,0 UV-I 63 W/m 0,0 km/h (0 Bft)
05.07.2013 20:14 21,3 C 20,7 C 79 % 1028,7 hPa 0,0 l/m 0 min 0 min 0,0 UV-I 63 W/m 0,0 km/h (0 Bft)
05.07.2013 20:16 21,3 C 20,7 C 79 % 1028,6 hPa 0,0 l/m 0 min 0 min 0,0 UV-I 62 W/m 0,0 km/h (0 Bft)
05.07.2013 20:18 21,3 C 20,7 C 79 % 1028,7 hPa 0,0 l/m 0 min 0 min 0,0 UV-I 60 W/m 10,3 km/h (2 Bft)
05.07.2013 20:20 21,2 C 20,1 C 79 % 1028,7 hPa 0,0 l/m 0 min 0 min 0,0 UV-I 58 W/m 10,3 km/h (2 Bft)
05.07.2013 20:22 21,2 C 20,1 C 79 % 1028,8 hPa 0,0 l/m 0 min 0 min 0,0 UV-I 58 W/m 7,7 km/h (2 Bft)
05.07.2013 20:24 21,1 C 20,1 C 79 % 1028,8 hPa 0,0 l/m 0 min 0 min 0,0 UV-I 56 W/m 7,7 km/h (2 Bft)
05.07.2013 20:26 21,1 C 20,1 C 79 % 1028,9 hPa 0,0 l/m 0 min 0 min 0,0 UV-I 54 W/m 12,9 km/h (3 Bft)
05.07.2013 20:28 21,1 C 20,1 C 79 % 1028,9 hPa 0,0 l/m 0 min 0 min 0,0 UV-I 54 W/m 7,7 km/h (2 Bft)
05.07.2013 20:30 21,0 C 20,1 C 80 % 1028,9 hPa 0,0 l/m 0 min 0 min 0,0 UV-I 53 W/m 7,7 km/h (2 Bft)
05.07.2013 20:32 21,0 C 20,1 C 80 % 1028,9 hPa 0,0 l/m 0 min 0 min 0,0 UV-I 51 W/m 7,7 km/h (2 Bft)
05.07.2013 20:34 20,9 C 20,1 C 80 % 1028,9 hPa 0,0 l/m 0 min 0 min 0,0 UV-I 49 W/m 12,9 km/h (3 Bft)
05.07.2013 20:36 20,9 C 20,1 C 80 % 1028,9 hPa 0,0 l/m 0 min 0 min 0,0 UV-I 47 W/m 7,7 km/h (2 Bft)
05.07.2013 20:38 20,8 C 20,1 C 80 % 1028,8 hPa 0,0 l/m 0 min 0 min 0,0 UV-I 47 W/m 10,3 km/h (2 Bft)
05.07.2013 20:40 20,8 C 19,6 C 80 % 1028,7 hPa 0,0 l/m 0 min 0 min 0,0 UV-I 46 W/m 10,3 km/h (2 Bft)
05.07.2013 20:42 20,8 C 19,6 C 80 % 1028,8 hPa 0,0 l/m 0 min 0 min 0,0 UV-I 44 W/m 0,0 km/h (0 Bft)
05.07.2013 20:44 20,7 C 19,6 C 81 % 1028,8 hPa 0,0 l/m 0 min 0 min 0,0 UV-I 42 W/m 2,6 km/h (1 Bft)
05.07.2013 20:46 20,7 C 19,6 C 81 % 1028,8 hPa 0,0 l/m 0 min 0 min 0,0 UV-I 40 W/m 0,0 km/h (0 Bft)
05.07.2013 20:48 20,7 C 19,6 C 81 % 1028,9 hPa 0,0 l/m 0 min 0 min 0,0 UV-I 39 W/m 2,6 km/h (1 Bft)
05.07.2013 20:50 20,7 C 19,6 C 81 % 1028,9 hPa 0,0 l/m 0 min 0 min 0,0 UV-I 37 W/m 7,7 km/h (2 Bft)
05.07.2013 20:52 20,7 C 19,6 C 81 % 1028,8 hPa 0,0 l/m 0 min 0 min 0,0 UV-I 35 W/m 5,1 km/h (1 Bft)
05.07.2013 20:54 20,7 C 19,6 C 81 % 1028,8 hPa 0,0 l/m 0 min 0 min 0,0 UV-I 33 W/m 0,0 km/h (0 Bft)
05.07.2013 20:56 20,7 C 19,6 C 81 % 1028,8 hPa 0,0 l/m 0 min 0 min 0,0 UV-I 33 W/m 0,0 km/h (0 Bft)
05.07.2013 20:58 20,7 C 19,6 C 81 % 1028,8 hPa 0,0 l/m 0 min 0 min 0,0 UV-I 32 W/m 2,6 km/h (1 Bft)
05.07.2013 21:00 20,7 C 19,6 C 81 % 1028,9 hPa 0,0 l/m 0 min 0 min 0,0 UV-I 30 W/m 0,0 km/h (0 Bft)
05.07.2013 21:02 20,7 C 19,6 C 81 % 1028,9 hPa 0,0 l/m 0 min 0 min 0,0 UV-I 28 W/m 0,0 km/h (0 Bft)
05.07.2013 21:06 20,7 C 19,0 C 81 % 1028,8 hPa 0,0 l/m 0 min 0 min 0,0 UV-I 26 W/m 0,0 km/h (0 Bft)
05.07.2013 21:08 20,7 C 19,0 C 81 % 1028,8 hPa 0,0 l/m 0 min 0 min 0,0 UV-I 25 W/m 2,6 km/h (1 Bft)
05.07.2013 21:10 20,6 C 19,0 C 81 % 1028,9 hPa 0,0 l/m 0 min 0 min 0,0 UV-I 25 W/m 0,0 km/h (0 Bft)
05.07.2013 21:12 20,7 C 19,0 C 81 % 1028,9 hPa 0,0 l/m 0 min 0 min 0,0 UV-I 23 W/m 0,0 km/h (0 Bft)
05.07.2013 21:14 20,6 C 19,0 C 81 % 1028,9 hPa 0,0 l/m 0 min 0 min 0,0 UV-I 21 W/m 2,6 km/h (1 Bft)
05.07.2013 21:16 20,6 C 19,0 C 81 % 1028,9 hPa 0,0 l/m 0 min 0 min 0,0 UV-I 21 W/m 0,0 km/h (0 Bft)
05.07.2013 21:18 20,6 C 19,0 C 82 % 1028,9 hPa 0,0 l/m 0 min 0 min 0,0 UV-I 19 W/m 0,0 km/h (0 Bft)
05.07.2013 21:20 20,6 C 19,0 C 81 % 1028,9 hPa 0,0 l/m 0 min 0 min 0,0 UV-I 18 W/m 0,0 km/h (0 Bft)
05.07.2013 21:22 20,6 C 19,0 C 81 % 1028,9 hPa 0,0 l/m 0 min 0 min 0,0 UV-I 16 W/m 0,0 km/h (0 Bft)
05.07.2013 21:24 20,5 C 18,4 C 81 % 1028,9 hPa 0,0 l/m 0 min 0 min 0,0 UV-I 16 W/m 0,0 km/h (0 Bft)
05.07.2013 21:26 20,5 C 18,4 C 81 % 1028,9 hPa 0,0 l/m 0 min 0 min 0,0 UV-I 14 W/m 0,0 km/h (0 Bft)
05.07.2013 21:28 20,4 C 18,4 C 81 % 1028,9 hPa 0,0 l/m 0 min 0 min 0,0 UV-I 14 W/m 0,0 km/h (0 Bft)
05.07.2013 21:30 20,4 C 17,9 C 82 % 1029,0 hPa 0,0 l/m 0 min 0 min 0,0 UV-I 12 W/m 0,0 km/h (0 Bft)
05.07.2013 21:32 20,4 C 17,9 C 82 % 1029,0 hPa 0,0 l/m 0 min 0 min 0,0 UV-I 12 W/m 0,0 km/h (0 Bft)
05.07.2013 21:34 20,4 C 17,9 C 82 % 1029,0 hPa 0,0 l/m 0 min 0 min 0,0 UV-I 11 W/m 0,0 km/h (0 Bft)
05.07.2013 21:36 20,3 C 17,9 C 82 % 1028,9 hPa 0,0 l/m 0 min 0 min 0,0 UV-I 9 W/m 0,0 km/h (0 Bft)
05.07.2013 21:38 20,3 C 17,9 C 82 % 1028,9 hPa 0,0 l/m 0 min 0 min 0,0 UV-I 9 W/m 0,0 km/h (0 Bft)
05.07.2013 21:40 20,3 C 17,9 C 82 % 1029,0 hPa 0,0 l/m 0 min 0 min 0,0 UV-I 7 W/m 0,0 km/h (0 Bft)
05.07.2013 21:42 20,3 C 17,3 C 82 % 1029,0 hPa 0,0 l/m 0 min 0 min 0,0 UV-I 7 W/m 0,0 km/h (0 Bft)
05.07.2013 21:44 20,2 C 17,3 C 82 % 1029,0 hPa 0,0 l/m 0 min 0 min 0,0 UV-I 7 W/m 0,0 km/h (0 Bft)
05.07.2013 21:46 20,2 C 17,3 C 82 % 1029,1 hPa 0,0 l/m 0 min 0 min 0,0 UV-I 5 W/m 0,0 km/h (0 Bft)
05.07.2013 21:48 20,1 C 17,3 C 82 % 1029,0 hPa 0,0 l/m 0 min 0 min 0,0 UV-I 5 W/m 0,0 km/h (0 Bft)
05.07.2013 21:50 20,1 C 17,3 C 83 % 1029,1 hPa 0,0 l/m 0 min 0 min 0,0 UV-I 5 W/m 0,0 km/h (0 Bft)
05.07.2013 21:52 20,1 C 17,3 C 83 % 1029,2 hPa 0,0 l/m 0 min 0 min 0,0 UV-I 0 W/m 0,0 km/h (0 Bft)
05.07.2013 21:54 20,0 C 16,8 C 83 % 1029,2 hPa 0,0 l/m 0 min 0 min 0,0 UV-I 0 W/m 0,0 km/h (0 Bft)
05.07.2013 21:56 19,9 C 16,8 C 83 % 1029,2 hPa 0,0 l/m 0 min 0 min 0,0 UV-I 0 W/m 0,0 km/h (0 Bft)
05.07.2013 21:58 19,9 C 16,8 C 83 % 1029,3 hPa 0,0 l/m 0 min 0 min 0,0 UV-I 0 W/m 0,0 km/h (0 Bft)
05.07.2013 22:00 19,9 C 16,8 C 83 % 1029,3 hPa 0,0 l/m 0 min 0 min 0,0 UV-I 0 W/m 0,0 km/h (0 Bft)
05.07.2013 22:02 19,8 C 16,8 C 84 % 1029,3 hPa 0,0 l/m 0 min 0 min 0,0 UV-I 0 W/m 0,0 km/h (0 Bft)
05.07.2013 22:06 19,7 C 16,8 C 84 % 1029,3 hPa 0,0 l/m 0 min 0 min 0,0 UV-I 0 W/m 0,0 km/h (0 Bft)
05.07.2013 22:08 19,7 C 16,8 C 84 % 1029,4 hPa 0,0 l/m 0 min 0 min 0,0 UV-I 0 W/m 0,0 km/h (0 Bft)
05.07.2013 22:10 19,7 C 16,2 C 84 % 1029,3 hPa 0,0 l/m 0 min 0 min 0,0 UV-I 0 W/m 0,0 km/h (0 Bft)
05.07.2013 22:12 19,6 C 16,2 C 84 % 1029,4 hPa 0,0 l/m 0 min 0 min 0,0 UV-I 0 W/m 0,0 km/h (0 Bft)
05.07.2013 22:14 19,6 C 16,2 C 84 % 1029,4 hPa 0,0 l/m 0 min 0 min 0,0 UV-I 0 W/m 0,0 km/h (0 Bft)
05.07.2013 22:16 19,5 C 16,2 C 84 % 1029,4 hPa 0,0 l/m 0 min 0 min 0,0 UV-I 0 W/m 0,0 km/h (0 Bft)
05.07.2013 22:18 19,4 C 16,2 C 85 % 1029,4 hPa 0,0 l/m 0 min 0 min 0,0 UV-I 0 W/m 0,0 km/h (0 Bft)
05.07.2013 22:20 19,4 C 16,2 C 85 % 1029,4 hPa 0,0 l/m 0 min 0 min 0,0 UV-I 0 W/m 0,0 km/h (0 Bft)
05.07.2013 22:22 19,3 C 16,2 C 85 % 1029,5 hPa 0,0 l/m 0 min 0 min 0,0 UV-I 0 W/m 0,0 km/h (0 Bft)
05.07.2013 22:24 19,3 C 16,2 C 85 % 1029,5 hPa 0,0 l/m 0 min 0 min 0,0 UV-I 0 W/m 0,0 km/h (0 Bft)
05.07.2013 22:26 19,3 C 16,2 C 85 % 1029,5 hPa 0,0 l/m 0 min 0 min 0,0 UV-I 0 W/m 0,0 km/h (0 Bft)
05.07.2013 22:28 19,2 C 16,2 C 85 % 1029,4 hPa 0,0 l/m 0 min 0 min 0,0 UV-I 0 W/m 0,0 km/h (0 Bft)
05.07.2013 22:30 19,2 C 16,2 C 85 % 1029,5 hPa 0,0 l/m 0 min 0 min 0,0 UV-I 0 W/m 0,0 km/h (0 Bft)
05.07.2013 22:32 19,2 C 16,2 C 85 % 1029,5 hPa 0,0 l/m 0 min 0 min 0,0 UV-I 0 W/m 0,0 km/h (0 Bft)
05.07.2013 22:34 19,1 C 16,2 C 85 % 1029,5 hPa 0,0 l/m 0 min 0 min 0,0 UV-I 0 W/m 0,0 km/h (0 Bft)
05.07.2013 22:36 19,1 C 16,2 C 86 % 1029,5 hPa 0,0 l/m 0 min 0 min 0,0 UV-I 0 W/m 0,0 km/h (0 Bft)
05.07.2013 22:38 19,0 C 15,7 C 86 % 1029,5 hPa 0,0 l/m 0 min 0 min 0,0 UV-I 0 W/m 0,0 km/h (0 Bft)
05.07.2013 22:40 18,9 C 15,7 C 86 % 1029,5 hPa 0,0 l/m 0 min 0 min 0,0 UV-I 0 W/m 0,0 km/h (0 Bft)
05.07.2013 22:42 18,9 C 15,7 C 86 % 1029,5 hPa 0,0 l/m 0 min 0 min 0,0 UV-I 0 W/m 0,0 km/h (0 Bft)
05.07.2013 22:44 18,8 C 15,7 C 86 % 1029,5 hPa 0,0 l/m 0 min 0 min 0,0 UV-I 0 W/m 0,0 km/h (0 Bft)
05.07.2013 22:46 18,8 C 15,7 C 86 % 1029,5 hPa 0,0 l/m 0 min 0 min 0,0 UV-I 0 W/m 0,0 km/h (0 Bft)
05.07.2013 22:48 18,8 C 15,7 C 87 % 1029,5 hPa 0,0 l/m 0 min 0 min 0,0 UV-I 0 W/m 0,0 km/h (0 Bft)
05.07.2013 22:50 18,7 C 15,7 C 87 % 1029,5 hPa 0,0 l/m 0 min 0 min 0,0 UV-I 0 W/m 0,0 km/h (0 Bft)
05.07.2013 22:52 18,7 C 15,7 C 87 % 1029,5 hPa 0,0 l/m 0 min 0 min 0,0 UV-I 0 W/m 0,0 km/h (0 Bft)
05.07.2013 22:54 18,6 C 15,7 C 87 % 1029,5 hPa 0,0 l/m 0 min 0 min 0,0 UV-I 0 W/m 0,0 km/h (0 Bft)
05.07.2013 22:56 18,6 C 15,7 C 87 % 1029,5 hPa 0,0 l/m 0 min 0 min 0,0 UV-I 0 W/m 0,0 km/h (0 Bft)
05.07.2013 22:58 18,5 C 15,7 C 87 % 1029,5 hPa 0,0 l/m 0 min 0 min 0,0 UV-I 0 W/m 0,0 km/h (0 Bft)
05.07.2013 23:00 18,4 C 15,7 C 87 % 1029,5 hPa 0,0 l/m 0 min 0 min 0,0 UV-I 0 W/m 0,0 km/h (0 Bft)
05.07.2013 23:02 18,4 C 15,7 C 88 % 1029,5 hPa 0,0 l/m 0 min 0 min 0,0 UV-I 0 W/m 0,0 km/h (0 Bft)
05.07.2013 23:06 18,3 C 15,7 C 88 % 1029,5 hPa 0,0 l/m 0 min 0 min 0,0 UV-I 0 W/m 0,0 km/h (0 Bft)
05.07.2013 23:08 18,3 C 15,7 C 88 % 1029,5 hPa 0,0 l/m 0 min 0 min 0,0 UV-I 0 W/m 0,0 km/h (0 Bft)
05.07.2013 23:10 18,2 C 15,7 C 88 % 1029,5 hPa 0,0 l/m 0 min 0 min 0,0 UV-I 0 W/m 0,0 km/h (0 Bft)
05.07.2013 23:12 18,2 C 15,7 C 88 % 1029,6 hPa 0,0 l/m 0 min 0 min 0,0 UV-I 0 W/m 0,0 km/h (0 Bft)
05.07.2013 23:14 18,2 C 15,1 C 88 % 1029,6 hPa 0,0 l/m 0 min 0 min 0,0 UV-I 0 W/m 0,0 km/h (0 Bft)
05.07.2013 23:16 18,1 C 15,1 C 88 % 1029,5 hPa 0,0 l/m 0 min 0 min 0,0 UV-I 0 W/m 0,0 km/h (0 Bft)
05.07.2013 23:18 18,1 C 15,1 C 88 % 1029,5 hPa 0,0 l/m 0 min 0 min 0,0 UV-I 0 W/m 0,0 km/h (0 Bft)
05.07.2013 23:20 18,1 C 15,1 C 89 % 1029,6 hPa 0,0 l/m 0 min 0 min 0,0 UV-I 0 W/m 0,0 km/h (0 Bft)
05.07.2013 23:22 18,0 C 15,1 C 89 % 1029,5 hPa 0,0 l/m 0 min 0 min 0,0 UV-I 0 W/m 0,0 km/h (0 Bft)
05.07.2013 23:24 17,9 C 15,1 C 89 % 1029,5 hPa 0,0 l/m 0 min 0 min 0,0 UV-I 0 W/m 0,0 km/h (0 Bft)
05.07.2013 23:26 17,9 C 15,1 C 89 % 1029,6 hPa 0,0 l/m 0 min 0 min 0,0 UV-I 0 W/m 0,0 km/h (0 Bft)
05.07.2013 23:28 17,9 C 15,1 C 89 % 1029,5 hPa 0,0 l/m 0 min 0 min 0,0 UV-I 0 W/m 0,0 km/h (0 Bft)
05.07.2013 23:30 17,8 C 15,1 C 89 % 1029,5 hPa 0,0 l/m 0 min 0 min 0,0 UV-I 0 W/m 0,0 km/h (0 Bft)
05.07.2013 23:32 17,8 C 15,1 C 89 % 1029,6 hPa 0,0 l/m 0 min 0 min 0,0 UV-I 0 W/m 0,0 km/h (0 Bft)
05.07.2013 23:34 17,8 C 15,1 C 89 % 1029,6 hPa 0,0 l/m 0 min 0 min 0,0 UV-I 0 W/m 0,0 km/h (0 Bft)
05.07.2013 23:36 17,8 C 15,1 C 90 % 1029,6 hPa 0,0 l/m 0 min 0 min 0,0 UV-I 0 W/m 0,0 km/h (0 Bft)
05.07.2013 23:38 17,7 C 15,1 C 90 % 1029,6 hPa 0,0 l/m 0 min 0 min 0,0 UV-I 0 W/m 0,0 km/h (0 Bft)
05.07.2013 23:40 17,7 C 15,1 C 90 % 1029,6 hPa 0,0 l/m 0 min 0 min 0,0 UV-I 0 W/m 0,0 km/h (0 Bft)
05.07.2013 23:42 17,7 C 15,1 C 90 % 1029,6 hPa 0,0 l/m 0 min 0 min 0,0 UV-I 0 W/m 0,0 km/h (0 Bft)
05.07.2013 23:44 17,6 C 15,1 C 90 % 1029,6 hPa 0,0 l/m 0 min 0 min 0,0 UV-I 0 W/m 0,0 km/h (0 Bft)
05.07.2013 23:46 17,6 C 15,1 C 90 % 1029,6 hPa 0,0 l/m 0 min 0 min 0,0 UV-I 0 W/m 0,0 km/h (0 Bft)
05.07.2013 23:48 17,6 C 15,1 C 90 % 1029,6 hPa 0,0 l/m 0 min 0 min 0,0 UV-I 0 W/m 0,0 km/h (0 Bft)
05.07.2013 23:50 17,5 C 15,1 C 90 % 1029,6 hPa 0,0 l/m 0 min 0 min 0,0 UV-I 0 W/m 0,0 km/h (0 Bft)
05.07.2013 23:52 17,5 C 15,1 C 90 % 1029,6 hPa 0,0 l/m 0 min 0 min 0,0 UV-I 0 W/m 0,0 km/h (0 Bft)
05.07.2013 23:54 17,4 C 15,1 C 90 % 1029,6 hPa 0,0 l/m 0 min 0 min 0,0 UV-I 0 W/m 0,0 km/h (0 Bft)
05.07.2013 23:56 17,4 C 15,1 C 90 % 1029,6 hPa 0,0 l/m 0 min 0 min 0,0 UV-I 0 W/m 0,0 km/h (0 Bft)
05.07.2013 23:58 17,4 C 15,1 C 90 % 1029,6 hPa 0,0 l/m 0 min 0 min 0,0 UV-I 0 W/m 0,0 km/h (0 Bft)
_ Min-Zeit 05:48 05:12 13:30 00:00 - - - - - 00:00
Minimum _ 16,3 C 14,6 C 67 % 1024,4 hPa - - - - - 0,0 km/h (0 Bft)
_ Max-Zeit 15:06 13:28 07:24 23:12 00:00 10:20 00:00 14:46 13:28 16:50
Maximum _ 24,1 C 31,8 C 94 % 1029,6 hPa 0,0 l/m 2 min 0 min 4,9 UV-I 1030 W/m 30,9 km/h
N-NW (5 Bft)
Durchschnitt _ 19,6 C 19,7 C 83 % 1027,5 hPa #0,0 l/m #5:28 h #0 min. 2,3 UV-I 330 W/m 4,4 km/h (1 Bft)
© 2013 W. Hausmann